Observation data for Hobbs on 07/18/2019      Previous  Date  Next       Current Mesonet Observations  Soil Data  Daily Summary Page  Observations in Plain Language
KHO1 180500Z 22003KT 24/15 A3004 RMK A01 T02430147  RH  055%=      5-min Rain = 0
KHO1 180501Z 22003KT 24/15 A3004 RMK A01 T02430147  RH  055%=      5-min Rain = 0
KHO1 180502Z 22002KT 24/15 A3004 RMK A01 T02430147  RH  055%=      5-min Rain = 0
KHO1 180503Z 23002KT 24/15 A3004 RMK A01 T02430147  RH  055%=      5-min Rain = 0
KHO1 180504Z 23002KT 24/15 A3004 RMK A01 T02430148  RH  055%=      5-min Rain = 0
KHO1 180505Z 23002KT 24/15 A3004 RMK A01 T02420148  RH  056%=      5-min Rain = 0
KHO1 180506Z 23002KT 24/15 A3004 RMK A01 T02420148  RH  056%=      5-min Rain = 0
KHO1 180507Z 23002KT 24/15 A3004 RMK A01 T02420148  RH  056%=      5-min Rain = 0
KHO1 180508Z 21002KT 24/15 A3004 RMK A01 T02420149  RH  056%=      5-min Rain = 0
KHO1 180509Z 21002KT 24/15 A3004 RMK A01 T02420149  RH  056%=      5-min Rain = 0
KHO1 180510Z 21002KT 24/15 A3004 RMK A01 T02420149  RH  056%=      5-min Rain = 0
KHO1 180511Z 21002KT 24/15 A3004 RMK A01 T02420148  RH  056%=      5-min Rain = 0
KHO1 180512Z 21002KT 24/15 A3004 RMK A01 T02410148  RH  056%=      5-min Rain = 0
KHO1 180513Z 20003KT 24/15 A3004 RMK A01 T02400147  RH  056%=      5-min Rain = 0
KHO1 180514Z 19004KT 24/15 A3004 RMK A01 T02400148  RH  056%=      5-min Rain = 0
KHO1 180515Z 18004KT 24/15 A3004 RMK A01 T02400147  RH  056%=      5-min Rain = 0
KHO1 180516Z 18004KT 24/15 A3004 RMK A01 T02410148  RH  056%=      5-min Rain = 0
KHO1 180517Z 18004KT 24/15 A3004 RMK A01 T02410148  RH  056%=      5-min Rain = 0
KHO1 180518Z 18004KT 24/15 A3004 RMK A01 T02410148  RH  056%=      5-min Rain = 0
KHO1 180519Z 18004KT 24/15 A3004 RMK A01 T02410148  RH  056%=      5-min Rain = 0
KHO1 180520Z 17004KT 24/15 A3004 RMK A01 T02420148  RH  056%=      5-min Rain = 0
KHO1 180521Z 17005KT 24/15 A3004 RMK A01 T02420147  RH  055%=      5-min Rain = 0
KHO1 180522Z 17005KT 24/15 A3004 RMK A01 T02430147  RH  055%=      5-min Rain = 0
KHO1 180523Z 17005KT 24/15 A3004 RMK A01 T02440147  RH  055%=      5-min Rain = 0
KHO1 180524Z 16005KT 24/15 A3004 RMK A01 T02440146  RH  055%=      5-min Rain = 0
KHO1 180525Z 17006KT 24/15 A3004 RMK A01 T02440146  RH  054%=      5-min Rain = 0
KHO1 180526Z 17005KT 24/15 A3004 RMK A01 T02430146  RH  054%=      5-min Rain = 0
KHO1 180527Z 16006KT 24/15 A3004 RMK A01 T02440146  RH  054%=      5-min Rain = 0
KHO1 180528Z 17007KT 24/15 A3004 RMK A01 T02440146  RH  054%=      5-min Rain = 0
KHO1 180529Z 17006KT 25/15 A3004 RMK A01 T02450146  RH  054%=      5-min Rain = 0
KHO1 180530Z 17007KT 25/15 A3004 RMK A01 T02450145  RH  054%=      5-min Rain = 0
KHO1 180531Z 17007KT 25/15 A3004 RMK A01 T02450145  RH  054%=      5-min Rain = 0
KHO1 180532Z 17007KT 25/15 A3004 RMK A01 T02450145  RH  053%=      5-min Rain = 0
KHO1 180533Z 17008KT 25/15 A3004 RMK A01 T02460145  RH  053%=      5-min Rain = 0
KHO1 180534Z 17008KT 25/14 A3004 RMK A01 T02460144  RH  053%=      5-min Rain = 0
KHO1 180535Z 17008KT 25/14 A3004 RMK A01 T02460144  RH  053%=      5-min Rain = 0
KHO1 180536Z 17008KT 25/14 A3003 RMK A01 T02470144  RH  053%=      5-min Rain = 0
KHO1 180537Z 17008KT 25/14 A3003 RMK A01 T02470144  RH  053%=      5-min Rain = 0
KHO1 180538Z 17008KT 25/14 A3003 RMK A01 T02470144  RH  053%=      5-min Rain = 0
KHO1 180539Z 17009KT 25/14 A3003 RMK A01 T02470144  RH  053%=      5-min Rain = 0
KHO1 180540Z 17008KT 25/14 A3003 RMK A01 T02480144  RH  053%=      5-min Rain = 0
KHO1 180541Z 17008KT 25/14 A3003 RMK A01 T02480144  RH  052%=      5-min Rain = 0
KHO1 180542Z 17009KT 25/15 A3003 RMK A01 T02480145  RH  052%=      5-min Rain = 0
KHO1 180543Z 17010KT 25/15 A3003 RMK A01 T02490145  RH  052%=      5-min Rain = 0
KHO1 180544Z 17009KT 25/15 A3003 RMK A01 T02490145  RH  052%=      5-min Rain = 0
KHO1 180545Z 17008KT 25/15 A3003 RMK A01 T02500145  RH  052%=      5-min Rain = 0
KHO1 180546Z 18009KT 25/15 A3003 RMK A01 T02500145  RH  052%=      5-min Rain = 0
KHO1 180547Z 18009KT 25/15 A3003 RMK A01 T02500145  RH  052%=      5-min Rain = 0
KHO1 180548Z 18008KT 25/15 A3003 RMK A01 T02500145  RH  052%=      5-min Rain = 0
KHO1 180549Z 18009KT 25/15 A3003 RMK A01 T02500145  RH  052%=      5-min Rain = 0
KHO1 180550Z 18009KT 25/15 A3004 RMK A01 T02510145  RH  052%=      5-min Rain = 0
KHO1 180551Z 18009KT 25/15 A3004 RMK A01 T02510146  RH  052%=      5-min Rain = 0
KHO1 180552Z 18010KT 25/15 A3004 RMK A01 T02520146  RH  052%=      5-min Rain = 0
KHO1 180553Z 18011KT 25/15 A3004 RMK A01 T02520146  RH  052%=      5-min Rain = 0
KHO1 180554Z 18010KT 25/15 A3004 RMK A01 T02530146  RH  052%=      5-min Rain = 0
KHO1 180555Z 18009KT 25/15 A3004 RMK A01 T02530146  RH  052%=      5-min Rain = 0
KHO1 180556Z 18009KT 25/15 A3004 RMK A01 T02530146  RH  052%=      5-min Rain = 0
KHO1 180557Z 17009KT 25/15 A3004 RMK A01 T02530146  RH  052%=      5-min Rain = 0
KHO1 180558Z 18010KT 25/15 A3004 RMK A01 T02530147  RH  052%=      5-min Rain = 0
KHO1 180559Z 17010KT 25/15 A3004 RMK A01 T02530147  RH  052%=      5-min Rain = 0
KHO1 180600Z 18011KT 25/15 A3004 RMK A01 T02530147  RH  052%=      5-min Rain = 0
KHO1 180601Z 17011KT 25/15 A3004 RMK A01 T02530147  RH  052%=      5-min Rain = 0
KHO1 180602Z 17010KT 25/15 A3004 RMK A01 T02540147  RH  052%=      5-min Rain = 0
KHO1 180603Z 17012KT 25/15 A3004 RMK A01 T02530147  RH  052%=      5-min Rain = 0
KHO1 180604Z 17011KT 25/15 A3004 RMK A01 T02530148  RH  052%=      5-min Rain = 0
KHO1 180605Z 17010KT 25/15 A3003 RMK A01 T02530148  RH  052%=      5-min Rain = 0
KHO1 180606Z 17010KT 25/15 A3003 RMK A01 T02530148  RH  052%=      5-min Rain = 0
KHO1 180607Z 18011KT 25/15 A3003 RMK A01 T02530148  RH  052%=      5-min Rain = 0
KHO1 180608Z 17010KT 25/15 A3003 RMK A01 T02520148  RH  052%=      5-min Rain = 0
KHO1 180609Z 17011KT 25/15 A3003 RMK A01 T02520148  RH  052%=      5-min Rain = 0
KHO1 180610Z 18011KT 25/15 A3003 RMK A01 T02520148  RH  052%=      5-min Rain = 0
KHO1 180611Z 17010KT 25/15 A3003 RMK A01 T02520148  RH  052%=      5-min Rain = 0
KHO1 180612Z 18011KT 25/15 A3003 RMK A01 T02520148  RH  053%=      5-min Rain = 0
KHO1 180613Z 17009KT 25/15 A3003 RMK A01 T02520148  RH  053%=      5-min Rain = 0
KHO1 180614Z 17009KT 25/15 A3003 RMK A01 T02510148  RH  053%=      5-min Rain = 0
KHO1 180615Z 17010KT 25/15 A3003 RMK A01 T02510148  RH  053%=      5-min Rain = 0
KHO1 180616Z 17009KT 25/15 A3003 RMK A01 T02510149  RH  053%=      5-min Rain = 0
KHO1 180617Z 18009KT 25/15 A3003 RMK A01 T02510149  RH  053%=      5-min Rain = 0
KHO1 180618Z 17008KT 25/15 A3003 RMK A01 T02510149  RH  053%=      5-min Rain = 0
KHO1 180619Z 18009KT 25/15 A3003 RMK A01 T02500149  RH  053%=      5-min Rain = 0
KHO1 180620Z 17009KT 25/15 A3003 RMK A01 T02500149  RH  053%=      5-min Rain = 0
KHO1 180621Z 17009KT 25/15 A3003 RMK A01 T02500149  RH  053%=      5-min Rain = 0
KHO1 180622Z 17008KT 25/15 A3004 RMK A01 T02500149  RH  053%=      5-min Rain = 0
KHO1 180623Z 18010KT 25/15 A3004 RMK A01 T02500149  RH  054%=      5-min Rain = 0
KHO1 180624Z 18008KT 25/15 A3004 RMK A01 T02500149  RH  053%=      5-min Rain = 0
KHO1 180625Z 18009KT 25/15 A3004 RMK A01 T02500149  RH  054%=      5-min Rain = 0
KHO1 180626Z 17010KT 25/15 A3004 RMK A01 T02500150  RH  054%=      5-min Rain = 0
KHO1 180627Z 17009KT 25/15 A3004 RMK A01 T02500149  RH  053%=      5-min Rain = 0
KHO1 180628Z 18008KT 25/15 A3004 RMK A01 T02500149  RH  054%=      5-min Rain = 0
KHO1 180629Z 18008KT 25/15 A3004 RMK A01 T02500150  RH  054%=      5-min Rain = 0
KHO1 180630Z 17007KT 25/15 A3004 RMK A01 T02500150  RH  054%=      5-min Rain = 0
KHO1 180631Z 18008KT 25/15 A3004 RMK A01 T02500150  RH  054%=      5-min Rain = 0
KHO1 180632Z 18008KT 25/15 A3004 RMK A01 T02500150  RH  054%=      5-min Rain = 0
KHO1 180633Z 18008KT 25/15 A3004 RMK A01 T02500150  RH  054%=      5-min Rain = 0
KHO1 180634Z 18008KT 25/15 A3004 RMK A01 T02500150  RH  054%=      5-min Rain = 0
KHO1 180635Z 18008KT 25/15 A3004 RMK A01 T02500150  RH  054%=      5-min Rain = 0
KHO1 180636Z 18007KT 25/15 A3004 RMK A01 T02490150  RH  054%=      5-min Rain = 0
KHO1 180637Z 19008KT 25/15 A3004 RMK A01 T02490150  RH  054%=      5-min Rain = 0
KHO1 180638Z 18007KT 25/15 A3004 RMK A01 T02490150  RH  054%=      5-min Rain = 0
KHO1 180639Z 18007KT 25/15 A3004 RMK A01 T02480150  RH  054%=      5-min Rain = 0
KHO1 180640Z 18007KT 25/15 A3004 RMK A01 T02480150  RH  054%=      5-min Rain = 0
KHO1 180641Z 18006KT 25/15 A3004 RMK A01 T02480150  RH  054%=      5-min Rain = 0
KHO1 180642Z 19006KT 25/15 A3005 RMK A01 T02470150  RH  055%=      5-min Rain = 0
KHO1 180643Z 19007KT 25/15 A3005 RMK A01 T02470150  RH  055%=      5-min Rain = 0
KHO1 180644Z 18007KT 25/15 A3005 RMK A01 T02470150  RH  055%=      5-min Rain = 0
KHO1 180645Z 18007KT 25/15 A3005 RMK A01 T02470150  RH  055%=      5-min Rain = 0
KHO1 180646Z 18007KT 25/15 A3004 RMK A01 T02460150  RH  055%=      5-min Rain = 0
KHO1 180647Z 18008KT 25/15 A3004 RMK A01 T02460151  RH  055%=      5-min Rain = 0
KHO1 180648Z 18007KT 25/15 A3004 RMK A01 T02460151  RH  055%=      5-min Rain = 0
KHO1 180649Z 18007KT 25/15 A3004 RMK A01 T02460151  RH  055%=      5-min Rain = 0
KHO1 180650Z 18008KT 25/15 A3004 RMK A01 T02450151  RH  055%=      5-min Rain = 0
KHO1 180651Z 18008KT 25/15 A3004 RMK A01 T02460151  RH  055%=      5-min Rain = 0
KHO1 180652Z 18007KT 25/15 A3004 RMK A01 T02450151  RH  056%=      5-min Rain = 0
KHO1 180653Z 18007KT 25/15 A3004 RMK A01 T02450151  RH  056%=      5-min Rain = 0
KHO1 180654Z 18007KT 25/15 A3004 RMK A01 T02450151  RH  056%=      5-min Rain = 0
KHO1 180655Z 18008KT 25/15 A3004 RMK A01 T02450151  RH  056%=      5-min Rain = 0
KHO1 180656Z 18008KT 25/15 A3004 RMK A01 T02450152  RH  056%=      5-min Rain = 0
KHO1 180657Z 18008KT 25/15 A3004 RMK A01 T02450152  RH  056%=      5-min Rain = 0
KHO1 180658Z 18008KT 25/15 A3004 RMK A01 T02450152  RH  056%=      5-min Rain = 0
KHO1 180659Z 18008KT 24/15 A3004 RMK A01 T02440152  RH  056%=      5-min Rain = 0
KHO1 180700Z 18007KT 24/15 A3004 RMK A01 T02440152  RH  056%=      5-min Rain = 0
KHO1 180701Z 18007KT 24/15 A3004 RMK A01 T02440152  RH  057%=      5-min Rain = 0
KHO1 180702Z 18008KT 24/15 A3004 RMK A01 T02440152  RH  057%=      5-min Rain = 0
KHO1 180703Z 18008KT 24/15 A3004 RMK A01 T02440152  RH  057%=      5-min Rain = 0
KHO1 180704Z 18007KT 24/15 A3004 RMK A01 T02430153  RH  057%=      5-min Rain = 0
KHO1 180705Z 18008KT 24/15 A3005 RMK A01 T02430153  RH  057%=      5-min Rain = 0
KHO1 180706Z 18008KT 24/15 A3004 RMK A01 T02430153  RH  057%=      5-min Rain = 0
KHO1 180707Z 18007KT 24/15 A3004 RMK A01 T02430153  RH  057%=      5-min Rain = 0
KHO1 180708Z 18006KT 24/15 A3004 RMK A01 T02430153  RH  057%=      5-min Rain = 0
KHO1 180709Z 18007KT 24/15 A3004 RMK A01 T02430153  RH  057%=      5-min Rain = 0
KHO1 180710Z 18008KT 24/15 A3004 RMK A01 T02430154  RH  057%=      5-min Rain = 0
KHO1 180711Z 18009KT 24/15 A3004 RMK A01 T02430154  RH  057%=      5-min Rain = 0
KHO1 180712Z 18008KT 24/15 A3004 RMK A01 T02440154  RH  057%=      5-min Rain = 0
KHO1 180713Z 18008KT 24/15 A3004 RMK A01 T02430154  RH  057%=      5-min Rain = 0
KHO1 180714Z 18008KT 24/15 A3004 RMK A01 T02430154  RH  058%=      5-min Rain = 0
KHO1 180715Z 18007KT 24/15 A3004 RMK A01 T02430154  RH  058%=      5-min Rain = 0
KHO1 180716Z 18009KT 24/16 A3004 RMK A01 T02430155  RH  058%=      5-min Rain = 0
KHO1 180717Z 18009KT 24/16 A3004 RMK A01 T02430155  RH  058%=      5-min Rain = 0
KHO1 180718Z 19008KT 24/16 A3005 RMK A01 T02440155  RH  058%=      5-min Rain = 0
KHO1 180719Z 19009KT 24/16 A3005 RMK A01 T02440155  RH  058%=      5-min Rain = 0
KHO1 180720Z 18009KT 24/16 A3005 RMK A01 T02440156  RH  058%=      5-min Rain = 0
KHO1 180721Z 19009KT 24/16 A3005 RMK A01 T02440156  RH  058%=      5-min Rain = 0
KHO1 180722Z 19008KT 24/16 A3005 RMK A01 T02440156  RH  058%=      5-min Rain = 0
KHO1 180723Z 19007KT 24/16 A3005 RMK A01 T02440156  RH  058%=      5-min Rain = 0
KHO1 180724Z 19007KT 24/16 A3005 RMK A01 T02440156  RH  058%=      5-min Rain = 0
KHO1 180725Z 19008KT 24/16 A3005 RMK A01 T02430157  RH  058%=      5-min Rain = 0
KHO1 180726Z 19009KT 24/16 A3004 RMK A01 T02430157  RH  059%=      5-min Rain = 0
KHO1 180727Z 19009KT 24/16 A3005 RMK A01 T02430157  RH  059%=      5-min Rain = 0
KHO1 180728Z 19008KT 24/16 A3005 RMK A01 T02430157  RH  059%=      5-min Rain = 0
KHO1 180729Z 19007KT 24/16 A3005 RMK A01 T02420157  RH  059%=      5-min Rain = 0
KHO1 180730Z 19007KT 24/16 A3005 RMK A01 T02420157  RH  059%=      5-min Rain = 0
KHO1 180731Z 19007KT 24/16 A3005 RMK A01 T02420157  RH  059%=      5-min Rain = 0
KHO1 180732Z 19008KT 24/16 A3005 RMK A01 T02410157  RH  059%=      5-min Rain = 0
KHO1 180733Z 19008KT 24/16 A3005 RMK A01 T02410157  RH  059%=      5-min Rain = 0
KHO1 180734Z 19007KT 24/16 A3005 RMK A01 T02410157  RH  059%=      5-min Rain = 0
KHO1 180735Z 19008KT 24/16 A3005 RMK A01 T02410157  RH  059%=      5-min Rain = 0
KHO1 180736Z 19007KT 24/16 A3005 RMK A01 T02400157  RH  060%=      5-min Rain = 0
KHO1 180737Z 19007KT 24/16 A3005 RMK A01 T02400157  RH  060%=      5-min Rain = 0
KHO1 180738Z 19006KT 24/16 A3005 RMK A01 T02390157  RH  060%=      5-min Rain = 0
KHO1 180739Z 19006KT 24/16 A3005 RMK A01 T02390157  RH  060%=      5-min Rain = 0
KHO1 180740Z 19006KT 24/16 A3005 RMK A01 T02390157  RH  060%=      5-min Rain = 0
KHO1 180741Z 19006KT 24/16 A3005 RMK A01 T02380157  RH  060%=      5-min Rain = 0
KHO1 180742Z 19007KT 24/16 A3005 RMK A01 T02380157  RH  061%=      5-min Rain = 0
KHO1 180743Z 19007KT 24/16 A3005 RMK A01 T02370157  RH  061%=      5-min Rain = 0
KHO1 180744Z 19006KT 24/16 A3005 RMK A01 T02370157  RH  061%=      5-min Rain = 0
KHO1 180745Z 19006KT 24/16 A3005 RMK A01 T02370157  RH  061%=      5-min Rain = 0
KHO1 180746Z 19006KT 24/16 A3005 RMK A01 T02370157  RH  061%=      5-min Rain = 0
KHO1 180747Z 18007KT 24/16 A3005 RMK A01 T02370157  RH  061%=      5-min Rain = 0
KHO1 180748Z 19007KT 24/16 A3005 RMK A01 T02370157  RH  061%=      5-min Rain = 0
KHO1 180749Z 19008KT 24/16 A3005 RMK A01 T02370157  RH  061%=      5-min Rain = 0
KHO1 180750Z 19007KT 24/16 A3004 RMK A01 T02370157  RH  061%=      5-min Rain = 0
KHO1 180751Z 19007KT 24/16 A3004 RMK A01 T02370157  RH  061%=      5-min Rain = 0
KHO1 180752Z 19008KT 24/16 A3004 RMK A01 T02370156  RH  061%=      5-min Rain = 0
KHO1 180753Z 19008KT 24/16 A3004 RMK A01 T02370156  RH  061%=      5-min Rain = 0
KHO1 180754Z 19008KT 24/16 A3005 RMK A01 T02370156  RH  060%=      5-min Rain = 0
KHO1 180755Z 19008KT 24/16 A3004 RMK A01 T02370156  RH  060%=      5-min Rain = 0
KHO1 180756Z 20007KT 24/16 A3004 RMK A01 T02370156  RH  060%=      5-min Rain = 0
KHO1 180757Z 19008KT 24/16 A3004 RMK A01 T02370156  RH  060%=      5-min Rain = 0
KHO1 180758Z 19008KT 24/16 A3004 RMK A01 T02370156  RH  060%=      5-min Rain = 0
KHO1 180759Z 19008KT 24/16 A3004 RMK A01 T02370156  RH  060%=      5-min Rain = 0
KHO1 180800Z 20007KT 24/16 A3004 RMK A01 T02370156  RH  060%=      5-min Rain = 0
KHO1 180801Z 20008KT 24/16 A3004 RMK A01 T02360156  RH  060%=      5-min Rain = 0
KHO1 180802Z 19008KT 24/16 A3004 RMK A01 T02360156  RH  061%=      5-min Rain = 0
KHO1 180803Z 19007KT 24/16 A3004 RMK A01 T02360156  RH  061%=      5-min Rain = 0
KHO1 180804Z 19007KT 24/16 A3004 RMK A01 T02350156  RH  061%=      5-min Rain = 0
KHO1 180805Z 19007KT 24/16 A3004 RMK A01 T02350156  RH  061%=      5-min Rain = 0
KHO1 180806Z 19006KT 24/16 A3004 RMK A01 T02350156  RH  061%=      5-min Rain = 0
KHO1 180807Z 19007KT 24/16 A3004 RMK A01 T02350156  RH  061%=      5-min Rain = 0
KHO1 180808Z 19006KT 23/16 A3004 RMK A01 T02340156  RH  061%=      5-min Rain = 0
KHO1 180809Z 19006KT 23/16 A3004 RMK A01 T02340156  RH  061%=      5-min Rain = 0
KHO1 180810Z 18006KT 23/16 A3004 RMK A01 T02340156  RH  062%=      5-min Rain = 0
KHO1 180811Z 19007KT 23/16 A3004 RMK A01 T02340156  RH  062%=      5-min Rain = 0
KHO1 180812Z 19007KT 23/16 A3004 RMK A01 T02340156  RH  062%=      5-min Rain = 0
KHO1 180813Z 19007KT 23/16 A3004 RMK A01 T02340156  RH  062%=      5-min Rain = 0
KHO1 180814Z 19007KT 23/16 A3004 RMK A01 T02340156  RH  062%=      5-min Rain = 0
KHO1 180815Z 19007KT 23/16 A3004 RMK A01 T02340156  RH  062%=      5-min Rain = 0
KHO1 180816Z 19006KT 23/16 A3004 RMK A01 T02330156  RH  062%=      5-min Rain = 0
KHO1 180817Z 19007KT 23/16 A3004 RMK A01 T02340156  RH  062%=      5-min Rain = 0
KHO1 180818Z 19007KT 23/16 A3004 RMK A01 T02340156  RH  061%=      5-min Rain = 0
KHO1 180819Z 19007KT 23/16 A3004 RMK A01 T02340156  RH  061%=      5-min Rain = 0
KHO1 180820Z 19007KT 23/16 A3004 RMK A01 T02340156  RH  061%=      5-min Rain = 0
KHO1 180821Z 19007KT 23/16 A3003 RMK A01 T02340156  RH  061%=      5-min Rain = 0
KHO1 180822Z 19007KT 23/16 A3003 RMK A01 T02340156  RH  061%=      5-min Rain = 0
KHO1 180823Z 19006KT 23/16 A3003 RMK A01 T02340155  RH  061%=      5-min Rain = 0
KHO1 180824Z 19007KT 23/16 A3004 RMK A01 T02340155  RH  061%=      5-min Rain = 0
KHO1 180825Z 19007KT 23/16 A3004 RMK A01 T02340155  RH  061%=      5-min Rain = 0
KHO1 180826Z 19007KT 23/16 A3004 RMK A01 T02340155  RH  061%=      5-min Rain = 0
KHO1 180827Z 20006KT 23/16 A3004 RMK A01 T02330155  RH  062%=      5-min Rain = 0
KHO1 180828Z 19006KT 23/16 A3004 RMK A01 T02330155  RH  062%=      5-min Rain = 0
KHO1 180829Z 20007KT 23/16 A3004 RMK A01 T02330155  RH  062%=      5-min Rain = 0
KHO1 180830Z 20006KT 23/16 A3004 RMK A01 T02320155  RH  062%=      5-min Rain = 0
KHO1 180831Z 20006KT 23/16 A3004 RMK A01 T02320155  RH  062%=      5-min Rain = 0
KHO1 180832Z 19006KT 23/15 A3004 RMK A01 T02310154  RH  062%=      5-min Rain = 0
KHO1 180833Z 20006KT 23/16 A3004 RMK A01 T02310155  RH  062%=      5-min Rain = 0
KHO1 180834Z 20005KT 23/16 A3004 RMK A01 T02310155  RH  062%=      5-min Rain = 0
KHO1 180835Z 20005KT 23/16 A3004 RMK A01 T02300155  RH  062%=      5-min Rain = 0
KHO1 180836Z 20005KT 23/16 A3004 RMK A01 T02300155  RH  063%=      5-min Rain = 0
KHO1 180837Z 20004KT 23/16 A3004 RMK A01 T02290155  RH  063%=      5-min Rain = 0
KHO1 180838Z 20004KT 23/15 A3004 RMK A01 T02290154  RH  063%=      5-min Rain = 0
KHO1 180839Z 20004KT 23/15 A3004 RMK A01 T02280154  RH  063%=      5-min Rain = 0
KHO1 180840Z 20004KT 23/15 A3004 RMK A01 T02280154  RH  063%=      5-min Rain = 0
KHO1 180841Z 20005KT 23/15 A3004 RMK A01 T02270154  RH  064%=      5-min Rain = 0
KHO1 180842Z 20005KT 23/15 A3004 RMK A01 T02260154  RH  064%=      5-min Rain = 0
KHO1 180843Z 21005KT 23/16 A3004 RMK A01 T02260155  RH  064%=      5-min Rain = 0
KHO1 180844Z 21005KT 23/16 A3004 RMK A01 T02250155  RH  064%=      5-min Rain = 0
KHO1 180845Z 22004KT 23/16 A3004 RMK A01 T02250155  RH  064%=      5-min Rain = 0
KHO1 180846Z 22004KT 22/15 A3004 RMK A01 T02240154  RH  064%=      5-min Rain = 0
KHO1 180847Z 22004KT 22/15 A3004 RMK A01 T02240154  RH  065%=      5-min Rain = 0
KHO1 180848Z 22004KT 22/15 A3004 RMK A01 T02240154  RH  065%=      5-min Rain = 0
KHO1 180849Z 22004KT 22/16 A3004 RMK A01 T02240155  RH  065%=      5-min Rain = 0
KHO1 180850Z 22004KT 22/16 A3004 RMK A01 T02240155  RH  065%=      5-min Rain = 0
KHO1 180851Z 22004KT 22/16 A3004 RMK A01 T02240155  RH  065%=      5-min Rain = 0
KHO1 180852Z 22004KT 22/16 A3004 RMK A01 T02240155  RH  065%=      5-min Rain = 0
KHO1 180853Z 22004KT 22/16 A3004 RMK A01 T02230155  RH  065%=      5-min Rain = 0
KHO1 180854Z 22003KT 22/15 A3004 RMK A01 T02230154  RH  065%=      5-min Rain = 0
KHO1 180855Z 23003KT 22/15 A3004 RMK A01 T02220154  RH  065%=      5-min Rain = 0
KHO1 180856Z 23003KT 22/15 A3004 RMK A01 T02220154  RH  065%=      5-min Rain = 0
KHO1 180857Z 23004KT 22/15 A3004 RMK A01 T02200154  RH  066%=      5-min Rain = 0
KHO1 180858Z 23004KT 22/15 A3004 RMK A01 T02190154  RH  067%=      5-min Rain = 0
KHO1 180859Z 22004KT 22/15 A3004 RMK A01 T02180154  RH  067%=      5-min Rain = 0
KHO1 180900Z 23003KT 22/16 A3004 RMK A01 T02170155  RH  067%=      5-min Rain = 0
KHO1 180901Z 23003KT 22/16 A3004 RMK A01 T02170155  RH  068%=      5-min Rain = 0
KHO1 180902Z 23003KT 22/16 A3004 RMK A01 T02170155  RH  068%=      5-min Rain = 0
KHO1 180903Z 23003KT 22/16 A3004 RMK A01 T02160156  RH  068%=      5-min Rain = 0
KHO1 180904Z 23003KT 22/16 A3004 RMK A01 T02150156  RH  069%=      5-min Rain = 0
KHO1 180905Z 23003KT 22/16 A3004 RMK A01 T02150156  RH  069%=      5-min Rain = 0
KHO1 180906Z 23002KT 22/16 A3004 RMK A01 T02150157  RH  070%=      5-min Rain = 0
KHO1 180907Z 23003KT 22/16 A3004 RMK A01 T02150157  RH  070%=      5-min Rain = 0
KHO1 180908Z 22003KT 21/16 A3004 RMK A01 T02140157  RH  070%=      5-min Rain = 0
KHO1 180909Z 22003KT 21/16 A3004 RMK A01 T02140158  RH  070%=      5-min Rain = 0
KHO1 180910Z 22003KT 21/16 A3004 RMK A01 T02140158  RH  070%=      5-min Rain = 0
KHO1 180911Z 22004KT 21/16 A3004 RMK A01 T02140158  RH  070%=      5-min Rain = 0
KHO1 180912Z 22003KT 21/16 A3004 RMK A01 T02140158  RH  070%=      5-min Rain = 0
KHO1 180913Z 22003KT 21/16 A3004 RMK A01 T02140158  RH  070%=      5-min Rain = 0
KHO1 180914Z 22004KT 21/16 A3004 RMK A01 T02140157  RH  070%=      5-min Rain = 0
KHO1 180915Z 22004KT 21/16 A3004 RMK A01 T02140157  RH  070%=      5-min Rain = 0
KHO1 180916Z 22004KT 21/16 A3004 RMK A01 T02140158  RH  070%=      5-min Rain = 0
KHO1 180917Z 22004KT 22/16 A3004 RMK A01 T02150157  RH  070%=      5-min Rain = 0
KHO1 180918Z 21004KT 21/16 A3004 RMK A01 T02140157  RH  070%=      5-min Rain = 0
KHO1 180919Z 22004KT 21/16 A3004 RMK A01 T02140157  RH  070%=      5-min Rain = 0
KHO1 180920Z 21004KT 21/16 A3004 RMK A01 T02140156  RH  070%=      5-min Rain = 0
KHO1 180921Z 21005KT 21/16 A3004 RMK A01 T02140156  RH  069%=      5-min Rain = 0
KHO1 180922Z 20005KT 21/16 A3004 RMK A01 T02130156  RH  070%=      5-min Rain = 0
KHO1 180923Z 20005KT 21/16 A3004 RMK A01 T02130155  RH  070%=      5-min Rain = 0
KHO1 180924Z 20004KT 21/16 A3004 RMK A01 T02130156  RH  070%=      5-min Rain = 0
KHO1 180925Z 20005KT 21/16 A3004 RMK A01 T02130156  RH  070%=      5-min Rain = 0
KHO1 180926Z 19004KT 21/16 A3003 RMK A01 T02130156  RH  070%=      5-min Rain = 0
KHO1 180927Z 19004KT 21/16 A3003 RMK A01 T02130156  RH  070%=      5-min Rain = 0
KHO1 180928Z 19004KT 21/16 A3003 RMK A01 T02130157  RH  070%=      5-min Rain = 0
KHO1 180929Z 18004KT 21/16 A3003 RMK A01 T02140157  RH  070%=      5-min Rain = 0
KHO1 180930Z 18004KT 21/16 A3003 RMK A01 T02130156  RH  070%=      5-min Rain = 0
KHO1 180931Z 18004KT 21/16 A3003 RMK A01 T02130157  RH  070%=      5-min Rain = 0
KHO1 180932Z 19004KT 21/16 A3003 RMK A01 T02130157  RH  070%=      5-min Rain = 0
KHO1 180933Z 19004KT 21/16 A3003 RMK A01 T02130156  RH  070%=      5-min Rain = 0
KHO1 180934Z 19004KT 21/16 A3003 RMK A01 T02130156  RH  070%=      5-min Rain = 0
KHO1 180935Z 18004KT 21/16 A3003 RMK A01 T02120156  RH  070%=      5-min Rain = 0
KHO1 180936Z 18004KT 21/16 A3003 RMK A01 T02120155  RH  070%=      5-min Rain = 0
KHO1 180937Z 18004KT 21/16 A3003 RMK A01 T02110155  RH  070%=      5-min Rain = 0
KHO1 180938Z 18004KT 21/16 A3003 RMK A01 T02120155  RH  070%=      5-min Rain = 0
KHO1 180939Z 18004KT 21/16 A3003 RMK A01 T02120156  RH  070%=      5-min Rain = 0
KHO1 180940Z 18004KT 21/16 A3003 RMK A01 T02120156  RH  070%=      5-min Rain = 0
KHO1 180941Z 18004KT 21/16 A3003 RMK A01 T02120155  RH  070%=      5-min Rain = 0
KHO1 180942Z 18004KT 21/16 A3003 RMK A01 T02120155  RH  070%=      5-min Rain = 0
KHO1 180943Z 17004KT 21/16 A3003 RMK A01 T02130155  RH  070%=      5-min Rain = 0
KHO1 180944Z 17004KT 21/16 A3003 RMK A01 T02120155  RH  070%=      5-min Rain = 0
KHO1 180945Z 17004KT 21/15 A3003 RMK A01 T02110154  RH  070%=      5-min Rain = 0
KHO1 180946Z 17004KT 21/15 A3003 RMK A01 T02110153  RH  070%=      5-min Rain = 0
KHO1 180947Z 17004KT 21/15 A3003 RMK A01 T02100152  RH  070%=      5-min Rain = 0
KHO1 180948Z 17004KT 21/15 A3003 RMK A01 T02080152  RH  070%=      5-min Rain = 0
KHO1 180949Z 16004KT 21/15 A3003 RMK A01 T02080153  RH  071%=      5-min Rain = 0
KHO1 180950Z 17004KT 21/15 A3003 RMK A01 T02080153  RH  071%=      5-min Rain = 0
KHO1 180951Z 17004KT 21/15 A3003 RMK A01 T02080153  RH  071%=      5-min Rain = 0
KHO1 180952Z 17004KT 21/15 A3003 RMK A01 T02090154  RH  071%=      5-min Rain = 0
KHO1 180953Z 17004KT 21/15 A3003 RMK A01 T02090154  RH  071%=      5-min Rain = 0
KHO1 180954Z 17005KT 21/15 A3003 RMK A01 T02090153  RH  070%=      5-min Rain = 0
KHO1 180955Z 17005KT 21/15 A3003 RMK A01 T02100153  RH  070%=      5-min Rain = 0
KHO1 180956Z 17005KT 21/15 A3003 RMK A01 T02110153  RH  070%=      5-min Rain = 0
KHO1 180957Z 17004KT 21/15 A3003 RMK A01 T02110153  RH  069%=      5-min Rain = 0
KHO1 180958Z 17004KT 21/15 A3003 RMK A01 T02110153  RH  069%=      5-min Rain = 0
KHO1 180959Z 17004KT 21/15 A3003 RMK A01 T02120153  RH  069%=      5-min Rain = 0
KHO1 181000Z 16005KT 21/15 A3003 RMK A01 T02120153  RH  069%=      5-min Rain = 0
KHO1 181001Z 17006KT 21/15 A3003 RMK A01 T02120152  RH  069%=      5-min Rain = 0
KHO1 181002Z 17005KT 21/15 A3003 RMK A01 T02120152  RH  069%=      5-min Rain = 0
KHO1 181003Z 17005KT 21/15 A3003 RMK A01 T02120152  RH  069%=      5-min Rain = 0
KHO1 181004Z 17005KT 21/15 A3003 RMK A01 T02120152  RH  069%=      5-min Rain = 0
KHO1 181005Z 17005KT 21/15 A3003 RMK A01 T02120152  RH  069%=      5-min Rain = 0
KHO1 181006Z 17005KT 21/15 A3003 RMK A01 T02120152  RH  068%=      5-min Rain = 0
KHO1 181007Z 17006KT 21/15 A3003 RMK A01 T02120151  RH  068%=      5-min Rain = 0
KHO1 181008Z 17006KT 21/15 A3003 RMK A01 T02120152  RH  068%=      5-min Rain = 0
KHO1 181009Z 17006KT 21/15 A3003 RMK A01 T02130152  RH  068%=      5-min Rain = 0
KHO1 181010Z 17007KT 21/15 A3003 RMK A01 T02140152  RH  068%=      5-min Rain = 0
KHO1 181011Z 17006KT 21/15 A3003 RMK A01 T02140152  RH  068%=      5-min Rain = 0
KHO1 181012Z 17006KT 21/15 A3003 RMK A01 T02140152  RH  067%=      5-min Rain = 0
KHO1 181013Z 16006KT 22/15 A3003 RMK A01 T02150151  RH  067%=      5-min Rain = 0
KHO1 181014Z 17006KT 22/15 A3003 RMK A01 T02150151  RH  067%=      5-min Rain = 0
KHO1 181015Z 17006KT 22/15 A3003 RMK A01 T02150151  RH  067%=      5-min Rain = 0
KHO1 181016Z 17006KT 22/15 A3003 RMK A01 T02150151  RH  067%=      5-min Rain = 0
KHO1 181017Z 17006KT 22/15 A3003 RMK A01 T02150151  RH  067%=      5-min Rain = 0
KHO1 181018Z 17006KT 22/15 A3003 RMK A01 T02150151  RH  067%=      5-min Rain = 0
KHO1 181019Z 17005KT 22/15 A3003 RMK A01 T02150151  RH  067%=      5-min Rain = 0
KHO1 181020Z 17006KT 22/15 A3003 RMK A01 T02150151  RH  067%=      5-min Rain = 0
KHO1 181021Z 17005KT 22/15 A3003 RMK A01 T02150151  RH  067%=      5-min Rain = 0
KHO1 181022Z 17006KT 22/15 A3003 RMK A01 T02150151  RH  067%=      5-min Rain = 0
KHO1 181023Z 17006KT 22/15 A3003 RMK A01 T02150151  RH  067%=      5-min Rain = 0
KHO1 181024Z 17005KT 22/15 A3003 RMK A01 T02150151  RH  067%=      5-min Rain = 0
KHO1 181025Z 17006KT 21/15 A3003 RMK A01 T02140151  RH  067%=      5-min Rain = 0
KHO1 181026Z 17006KT 22/15 A3003 RMK A01 T02150151  RH  067%=      5-min Rain = 0
KHO1 181027Z 17006KT 22/15 A3003 RMK A01 T02150151  RH  067%=      5-min Rain = 0
KHO1 181028Z 17006KT 22/15 A3003 RMK A01 T02150150  RH  067%=      5-min Rain = 0
KHO1 181029Z 18005KT 22/15 A3003 RMK A01 T02150150  RH  067%=      5-min Rain = 0
KHO1 181030Z 18005KT 21/15 A3003 RMK A01 T02140150  RH  067%=      5-min Rain = 0
KHO1 181031Z 18005KT 21/15 A3003 RMK A01 T02140150  RH  067%=      5-min Rain = 0
KHO1 181032Z 18006KT 21/15 A3003 RMK A01 T02140150  RH  067%=      5-min Rain = 0
KHO1 181033Z 17006KT 21/15 A3003 RMK A01 T02140150  RH  067%=      5-min Rain = 0
KHO1 181034Z 18006KT 21/15 A3003 RMK A01 T02140150  RH  067%=      5-min Rain = 0
KHO1 181035Z 18005KT 21/15 A3003 RMK A01 T02140150  RH  067%=      5-min Rain = 0
KHO1 181036Z 18006KT 21/15 A3003 RMK A01 T02140150  RH  067%=      5-min Rain = 0
KHO1 181037Z 18006KT 21/15 A3003 RMK A01 T02140150  RH  067%=      5-min Rain = 0
KHO1 181038Z 17005KT 21/15 A3003 RMK A01 T02140150  RH  067%=      5-min Rain = 0
KHO1 181039Z 17005KT 21/15 A3003 RMK A01 T02140150  RH  067%=      5-min Rain = 0
KHO1 181040Z 17005KT 21/15 A3003 RMK A01 T02140150  RH  067%=      5-min Rain = 0
KHO1 181041Z 17006KT 21/15 A3003 RMK A01 T02140150  RH  067%=      5-min Rain = 0
KHO1 181042Z 18005KT 21/15 A3003 RMK A01 T02140149  RH  067%=      5-min Rain = 0
KHO1 181043Z 17005KT 21/15 A3003 RMK A01 T02140149  RH  067%=      5-min Rain = 0
KHO1 181044Z 17006KT 21/15 A3003 RMK A01 T02140149  RH  067%=      5-min Rain = 0
KHO1 181045Z 17006KT 21/15 A3003 RMK A01 T02140149  RH  067%=      5-min Rain = 0
KHO1 181046Z 18006KT 21/15 A3003 RMK A01 T02140149  RH  067%=      5-min Rain = 0
KHO1 181047Z 17007KT 21/15 A3003 RMK A01 T02130149  RH  067%=      5-min Rain = 0
KHO1 181048Z 17006KT 21/15 A3003 RMK A01 T02140149  RH  066%=      5-min Rain = 0
KHO1 181049Z 18007KT 21/15 A3003 RMK A01 T02140148  RH  066%=      5-min Rain = 0
KHO1 181050Z 18007KT 22/15 A3003 RMK A01 T02150148  RH  066%=      5-min Rain = 0
KHO1 181051Z 18007KT 22/15 A3003 RMK A01 T02150148  RH  065%=      5-min Rain = 0
KHO1 181052Z 18006KT 22/15 A3003 RMK A01 T02150147  RH  065%=      5-min Rain = 0
KHO1 181053Z 18007KT 22/15 A3003 RMK A01 T02150146  RH  065%=      5-min Rain = 0
KHO1 181054Z 18006KT 22/15 A3003 RMK A01 T02160146  RH  064%=      5-min Rain = 0
KHO1 181055Z 19006KT 22/15 A3003 RMK A01 T02170145  RH  064%=      5-min Rain = 0
KHO1 181056Z 19006KT 22/15 A3003 RMK A01 T02170145  RH  064%=      5-min Rain = 0
KHO1 181057Z 18006KT 22/15 A3003 RMK A01 T02170145  RH  063%=      5-min Rain = 0
KHO1 181058Z 18006KT 22/14 A3003 RMK A01 T02170144  RH  063%=      5-min Rain = 0
KHO1 181059Z 18006KT 22/14 A3003 RMK A01 T02180143  RH  063%=      5-min Rain = 0
KHO1 181100Z 18006KT 22/14 A3003 RMK A01 T02180143  RH  063%=      5-min Rain = 0
KHO1 181101Z 18007KT 22/14 A3003 RMK A01 T02170144  RH  063%=      5-min Rain = 0
KHO1 181102Z 18007KT 22/14 A3003 RMK A01 T02170144  RH  063%=      5-min Rain = 0
KHO1 181103Z 18006KT 22/14 A3003 RMK A01 T02170144  RH  063%=      5-min Rain = 0
KHO1 181104Z 18007KT 22/14 A3003 RMK A01 T02160143  RH  063%=      5-min Rain = 0
KHO1 181105Z 18006KT 22/14 A3003 RMK A01 T02160144  RH  063%=      5-min Rain = 0
KHO1 181106Z 18007KT 22/14 A3003 RMK A01 T02160144  RH  064%=      5-min Rain = 0
KHO1 181107Z 18006KT 22/14 A3003 RMK A01 T02160144  RH  064%=      5-min Rain = 0
KHO1 181108Z 18006KT 22/14 A3004 RMK A01 T02150144  RH  064%=      5-min Rain = 0
KHO1 181109Z 18007KT 22/14 A3004 RMK A01 T02150144  RH  064%=      5-min Rain = 0
KHO1 181110Z 18007KT 22/14 A3004 RMK A01 T02150143  RH  064%=      5-min Rain = 0
KHO1 181111Z 18007KT 22/14 A3004 RMK A01 T02150143  RH  064%=      5-min Rain = 0
KHO1 181112Z 18007KT 22/14 A3003 RMK A01 T02150143  RH  064%=      5-min Rain = 0
KHO1 181113Z 17007KT 22/14 A3003 RMK A01 T02150143  RH  064%=      5-min Rain = 0
KHO1 181114Z 17007KT 21/14 A3003 RMK A01 T02140143  RH  064%=      5-min Rain = 0
KHO1 181115Z 18008KT 21/14 A3003 RMK A01 T02140142  RH  064%=      5-min Rain = 0
KHO1 181116Z 17007KT 21/14 A3003 RMK A01 T02140142  RH  063%=      5-min Rain = 0
KHO1 181117Z 17008KT 21/14 A3003 RMK A01 T02140142  RH  063%=      5-min Rain = 0
KHO1 181118Z 17008KT 21/14 A3003 RMK A01 T02140142  RH  063%=      5-min Rain = 0
KHO1 181119Z 17008KT 21/14 A3003 RMK A01 T02140141  RH  063%=      5-min Rain = 0
KHO1 181120Z 17008KT 21/14 A3003 RMK A01 T02140141  RH  063%=      5-min Rain = 0
KHO1 181121Z 17009KT 21/14 A3003 RMK A01 T02130141  RH  063%=      5-min Rain = 0
KHO1 181122Z 17008KT 21/14 A3003 RMK A01 T02130140  RH  063%=      5-min Rain = 0
KHO1 181123Z 17009KT 21/14 A3003 RMK A01 T02130140  RH  063%=      5-min Rain = 0
KHO1 181124Z 17008KT 21/14 A3003 RMK A01 T02130139  RH  063%=      5-min Rain = 0
KHO1 181125Z 18009KT 21/14 A3003 RMK A01 T02130139  RH  063%=      5-min Rain = 0
KHO1 181126Z 17009KT 21/14 A3003 RMK A01 T02130139  RH  063%=      5-min Rain = 0
KHO1 181127Z 17008KT 21/14 A3003 RMK A01 T02130139  RH  063%=      5-min Rain = 0
KHO1 181128Z 17009KT 21/14 A3003 RMK A01 T02130139  RH  062%=      5-min Rain = 0
KHO1 181129Z 17010KT 21/14 A3003 RMK A01 T02140138  RH  062%=      5-min Rain = 0
KHO1 181130Z 17009KT 21/14 A3003 RMK A01 T02140138  RH  062%=      5-min Rain = 0
KHO1 181131Z 17008KT 21/14 A3003 RMK A01 T02130138  RH  062%=      5-min Rain = 0
KHO1 181132Z 17009KT 21/14 A3003 RMK A01 T02130138  RH  062%=      5-min Rain = 0
KHO1 181133Z 17008KT 21/14 A3003 RMK A01 T02130138  RH  062%=      5-min Rain = 0
KHO1 181134Z 17008KT 21/14 A3003 RMK A01 T02130137  RH  062%=      5-min Rain = 0
KHO1 181135Z 17008KT 21/14 A3003 RMK A01 T02130137  RH  062%=      5-min Rain = 0
KHO1 181136Z 17007KT 21/14 A3003 RMK A01 T02130137  RH  062%=      5-min Rain = 0
KHO1 181137Z 17008KT 21/14 A3003 RMK A01 T02130137  RH  062%=      5-min Rain = 0
KHO1 181138Z 17009KT 21/14 A3003 RMK A01 T02130136  RH  062%=      5-min Rain = 0
KHO1 181139Z 17009KT 21/14 A3003 RMK A01 T02130136  RH  061%=      5-min Rain = 0
KHO1 181140Z 17008KT 21/14 A3003 RMK A01 T02130136  RH  061%=      5-min Rain = 0
KHO1 181141Z 17008KT 21/14 A3003 RMK A01 T02130136  RH  061%=      5-min Rain = 0
KHO1 181142Z 17009KT 21/14 A3003 RMK A01 T02130135  RH  061%=      5-min Rain = 0
KHO1 181143Z 17008KT 21/14 A3003 RMK A01 T02130135  RH  061%=      5-min Rain = 0
KHO1 181144Z 17008KT 21/14 A3003 RMK A01 T02130135  RH  061%=      5-min Rain = 0
KHO1 181145Z 18008KT 21/14 A3004 RMK A01 T02130135  RH  061%=      5-min Rain = 0
KHO1 181146Z 18008KT 21/14 A3003 RMK A01 T02130135  RH  061%=      5-min Rain = 0
KHO1 181147Z 18009KT 21/14 A3004 RMK A01 T02140135  RH  061%=      5-min Rain = 0
KHO1 181148Z 18009KT 22/13 A3004 RMK A01 T02150134  RH  060%=      5-min Rain = 0
KHO1 181149Z 17008KT 22/13 A3004 RMK A01 T02150134  RH  060%=      5-min Rain = 0
KHO1 181150Z 17007KT 22/13 A3004 RMK A01 T02150134  RH  060%=      5-min Rain = 0
KHO1 181151Z 17008KT 21/13 A3004 RMK A01 T02140134  RH  060%=      5-min Rain = 0
KHO1 181152Z 17009KT 21/13 A3004 RMK A01 T02140134  RH  060%=      5-min Rain = 0
KHO1 181153Z 18009KT 22/13 A3004 RMK A01 T02150133  RH  060%=      5-min Rain = 0
KHO1 181154Z 18008KT 22/13 A3004 RMK A01 T02150133  RH  060%=      5-min Rain = 0
KHO1 181155Z 18008KT 22/13 A3004 RMK A01 T02150133  RH  059%=      5-min Rain = 0
KHO1 181156Z 18009KT 22/13 A3004 RMK A01 T02150133  RH  059%=      5-min Rain = 0
KHO1 181157Z 18008KT 22/13 A3004 RMK A01 T02160133  RH  059%=      5-min Rain = 0
KHO1 181158Z 18009KT 22/13 A3004 RMK A01 T02160132  RH  059%=      5-min Rain = 0
KHO1 181159Z 18009KT 22/13 A3004 RMK A01 T02160132  RH  059%=      5-min Rain = 0
KHO1 181200Z 18008KT 22/13 A3004 RMK A01 T02160132  RH  059%=      5-min Rain = 0
KHO1 181201Z 18009KT 22/13 A3004 RMK A01 T02160132  RH  059%=      5-min Rain = 0
KHO1 181202Z 18009KT 22/13 A3004 RMK A01 T02160132  RH  059%=      5-min Rain = 0
KHO1 181203Z 18009KT 22/13 A3004 RMK A01 T02170132  RH  059%=      5-min Rain = 0
KHO1 181204Z 18009KT 22/13 A3004 RMK A01 T02170132  RH  058%=      5-min Rain = 0
KHO1 181205Z 18010KT 22/13 A3004 RMK A01 T02180132  RH  058%=      5-min Rain = 0
KHO1 181206Z 18009KT 22/13 A3004 RMK A01 T02180132  RH  058%=      5-min Rain = 0
KHO1 181207Z 18008KT 22/13 A3004 RMK A01 T02190132  RH  058%=      5-min Rain = 0
KHO1 181208Z 18008KT 22/13 A3004 RMK A01 T02180132  RH  058%=      5-min Rain = 0
KHO1 181209Z 18009KT 22/13 A3004 RMK A01 T02180132  RH  058%=      5-min Rain = 0
KHO1 181210Z 18010KT 22/13 A3004 RMK A01 T02190132  RH  058%=      5-min Rain = 0
KHO1 181211Z 19009KT 22/13 A3004 RMK A01 T02190132  RH  058%=      5-min Rain = 0
KHO1 181212Z 19008KT 22/13 A3005 RMK A01 T02190132  RH  058%=      5-min Rain = 0
KHO1 181213Z 18008KT 22/13 A3005 RMK A01 T02190132  RH  058%=      5-min Rain = 0
KHO1 181214Z 19007KT 22/13 A3005 RMK A01 T02190132  RH  058%=      5-min Rain = 0
KHO1 181215Z 18008KT 22/13 A3005 RMK A01 T02190132  RH  058%=      5-min Rain = 0
KHO1 181216Z 19007KT 22/13 A3004 RMK A01 T02190132  RH  058%=      5-min Rain = 0
KHO1 181217Z 18008KT 22/13 A3004 RMK A01 T02190132  RH  058%=      5-min Rain = 0
KHO1 181218Z 18006KT 22/13 A3005 RMK A01 T02190132  RH  058%=      5-min Rain = 0
KHO1 181219Z 18007KT 22/13 A3005 RMK A01 T02190132  RH  058%=      5-min Rain = 0
KHO1 181220Z 18007KT 22/13 A3005 RMK A01 T02190132  RH  058%=      5-min Rain = 0
KHO1 181221Z 19008KT 22/13 A3005 RMK A01 T02190132  RH  058%=      5-min Rain = 0
KHO1 181222Z 18007KT 22/13 A3005 RMK A01 T02200133  RH  058%=      5-min Rain = 0
KHO1 181223Z 18007KT 22/13 A3005 RMK A01 T02200133  RH  058%=      5-min Rain = 0
KHO1 181224Z 18008KT 22/13 A3005 RMK A01 T02200133  RH  058%=      5-min Rain = 0
KHO1 181225Z 18009KT 22/13 A3005 RMK A01 T02210132  RH  057%=      5-min Rain = 0
KHO1 181226Z 18009KT 22/13 A3004 RMK A01 T02220132  RH  057%=      5-min Rain = 0
KHO1 181227Z 18008KT 22/13 A3004 RMK A01 T02220132  RH  057%=      5-min Rain = 0
KHO1 181228Z 18008KT 22/13 A3005 RMK A01 T02220132  RH  057%=      5-min Rain = 0
KHO1 181229Z 18009KT 22/13 A3005 RMK A01 T02220132  RH  057%=      5-min Rain = 0
KHO1 181230Z 18009KT 22/13 A3004 RMK A01 T02230132  RH  057%=      5-min Rain = 0
KHO1 181231Z 19009KT 22/13 A3004 RMK A01 T02230132  RH  056%=      5-min Rain = 0
KHO1 181232Z 18009KT 22/13 A3004 RMK A01 T02230133  RH  056%=      5-min Rain = 0
KHO1 181233Z 18012KT 22/13 A3004 RMK A01 T02240132  RH  056%=      5-min Rain = 0
KHO1 181234Z 18011KT 22/13 A3004 RMK A01 T02240132  RH  056%=      5-min Rain = 0
KHO1 181235Z 18011KT 23/13 A3004 RMK A01 T02250132  RH  056%=      5-min Rain = 0
KHO1 181236Z 18010KT 22/13 A3004 RMK A01 T02240132  RH  056%=      5-min Rain = 0
KHO1 181237Z 19011KT 23/13 A3004 RMK A01 T02250132  RH  056%=      5-min Rain = 0
KHO1 181238Z 18011KT 23/13 A3004 RMK A01 T02250132  RH  056%=      5-min Rain = 0
KHO1 181239Z 19011KT 23/13 A3004 RMK A01 T02250132  RH  056%=      5-min Rain = 0
KHO1 181240Z 18010KT 23/13 A3004 RMK A01 T02260132  RH  056%=      5-min Rain = 0
KHO1 181241Z 18009KT 23/13 A3004 RMK A01 T02260133  RH  056%=      5-min Rain = 0
KHO1 181242Z 19010KT 23/13 A3004 RMK A01 T02260133  RH  056%=      5-min Rain = 0
KHO1 181243Z 19011KT 23/13 A3004 RMK A01 T02260132  RH  055%=      5-min Rain = 0
KHO1 181244Z 19008KT 23/13 A3004 RMK A01 T02270133  RH  055%=      5-min Rain = 0
KHO1 181245Z 19009KT 23/13 A3004 RMK A01 T02270133  RH  055%=      5-min Rain = 0
KHO1 181246Z 18009KT 23/13 A3004 RMK A01 T02270133  RH  055%=      5-min Rain = 0
KHO1 181247Z 19009KT 23/13 A3004 RMK A01 T02270133  RH  055%=      5-min Rain = 0
KHO1 181248Z 18009KT 23/13 A3004 RMK A01 T02280133  RH  055%=      5-min Rain = 0
KHO1 181249Z 19010KT 23/13 A3004 RMK A01 T02280133  RH  055%=      5-min Rain = 0
KHO1 181250Z 19009KT 23/13 A3004 RMK A01 T02280133  RH  055%=      5-min Rain = 0
KHO1 181251Z 18008KT 23/13 A3004 RMK A01 T02290133  RH  055%=      5-min Rain = 0
KHO1 181252Z 18009KT 23/13 A3004 RMK A01 T02290133  RH  055%=      5-min Rain = 0
KHO1 181253Z 18011KT 23/13 A3004 RMK A01 T02300133  RH  054%=      5-min Rain = 0
KHO1 181254Z 18010KT 23/13 A3004 RMK A01 T02300133  RH  054%=      5-min Rain = 0
KHO1 181255Z 18011KT 23/13 A3004 RMK A01 T02310133  RH  054%=      5-min Rain = 0
KHO1 181256Z 18012KT 23/13 A3004 RMK A01 T02310133  RH  054%=      5-min Rain = 0
KHO1 181257Z 18013KT 23/13 A3004 RMK A01 T02310133  RH  054%=      5-min Rain = 0
KHO1 181258Z 18013KT 23/13 A3004 RMK A01 T02310132  RH  054%=      5-min Rain = 0
KHO1 181259Z 17010KT 23/13 A3004 RMK A01 T02310133  RH  054%=      5-min Rain = 0
KHO1 181300Z 18013KT 23/13 A3004 RMK A01 T02320132  RH  053%=      5-min Rain = 0
KHO1 181301Z 18012KT 23/13 A3004 RMK A01 T02320132  RH  053%=      5-min Rain = 0
KHO1 181302Z 18009KT 23/13 A3004 RMK A01 T02320133  RH  054%=      5-min Rain = 0
KHO1 181303Z 18011KT 23/13 A3004 RMK A01 T02330133  RH  053%=      5-min Rain = 0
KHO1 181304Z 18012KT 23/13 A3004 RMK A01 T02330132  RH  053%=      5-min Rain = 0
KHO1 181305Z 18010KT 23/13 A3004 RMK A01 T02340133  RH  053%=      5-min Rain = 0
KHO1 181306Z 18010KT 24/13 A3004 RMK A01 T02350133  RH  053%=      5-min Rain = 0
KHO1 181307Z 18012KT 24/13 A3004 RMK A01 T02350132  RH  052%=      5-min Rain = 0
KHO1 181308Z 18010KT 24/13 A3004 RMK A01 T02350132  RH  052%=      5-min Rain = 0
KHO1 181309Z 18009G14KT 24/13 A3005 RMK A01 T02360134  RH  053%=      5-min Rain = 0
KHO1 181310Z 18011KT 24/13 A3004 RMK A01 T02370133  RH  052%=      5-min Rain = 0
KHO1 181311Z 18011KT 24/13 A3004 RMK A01 T02370132  RH  052%=      5-min Rain = 0
KHO1 181312Z 18011KT 24/13 A3004 RMK A01 T02380133  RH  052%=      5-min Rain = 0
KHO1 181313Z 18011KT 24/13 A3004 RMK A01 T02380132  RH  051%=      5-min Rain = 0
KHO1 181314Z 18011KT 24/13 A3004 RMK A01 T02390132  RH  051%=      5-min Rain = 0
KHO1 181315Z 18012KT 24/13 A3004 RMK A01 T02390132  RH  051%=      5-min Rain = 0
KHO1 181316Z 18013KT 24/13 A3004 RMK A01 T02390132  RH  051%=      5-min Rain = 0
KHO1 181317Z 18011KT 24/13 A3004 RMK A01 T02390133  RH  051%=      5-min Rain = 0
KHO1 181318Z 18012KT 24/13 A3004 RMK A01 T02400132  RH  051%=      5-min Rain = 0
KHO1 181319Z 18010KT 24/13 A3004 RMK A01 T02400133  RH  051%=      5-min Rain = 0
KHO1 181320Z 18009KT 24/13 A3004 RMK A01 T02410133  RH  051%=      5-min Rain = 0
KHO1 181321Z 18013KT 24/13 A3004 RMK A01 T02410132  RH  050%=      5-min Rain = 0
KHO1 181322Z 18012KT 24/13 A3004 RMK A01 T02400132  RH  051%=      5-min Rain = 0
KHO1 181323Z 18013KT 24/13 A3004 RMK A01 T02400131  RH  051%=      5-min Rain = 0
KHO1 181324Z 18010KT 24/13 A3004 RMK A01 T02400132  RH  051%=      5-min Rain = 0
KHO1 181325Z 18010KT 24/13 A3004 RMK A01 T02410133  RH  051%=      5-min Rain = 0
KHO1 181326Z 18013KT 24/13 A3004 RMK A01 T02410132  RH  050%=      5-min Rain = 0
KHO1 181327Z 18013KT 24/13 A3004 RMK A01 T02400131  RH  051%=      5-min Rain = 0
KHO1 181328Z 19013KT 24/13 A3004 RMK A01 T02390132  RH  051%=      5-min Rain = 0
KHO1 181329Z 18010KT 24/13 A3004 RMK A01 T02400133  RH  051%=      5-min Rain = 0
KHO1 181330Z 19012KT 24/13 A3004 RMK A01 T02410133  RH  051%=      5-min Rain = 0
KHO1 181331Z 19013KT 24/13 A3004 RMK A01 T02410132  RH  051%=      5-min Rain = 0
KHO1 181332Z 19014KT 24/13 A3004 RMK A01 T02400132  RH  051%=      5-min Rain = 0
KHO1 181333Z 19012KT 24/13 A3004 RMK A01 T02400133  RH  051%=      5-min Rain = 0
KHO1 181334Z 19013KT 24/13 A3005 RMK A01 T02410133  RH  051%=      5-min Rain = 0
KHO1 181335Z 19011KT 24/13 A3005 RMK A01 T02410134  RH  051%=      5-min Rain = 0
KHO1 181336Z 18013KT 24/13 A3005 RMK A01 T02420133  RH  051%=      5-min Rain = 0
KHO1 181337Z 19014KT 24/13 A3005 RMK A01 T02410133  RH  051%=      5-min Rain = 0
KHO1 181338Z 19012KT 24/13 A3005 RMK A01 T02410133  RH  051%=      5-min Rain = 0
KHO1 181339Z 19013KT 24/13 A3005 RMK A01 T02410133  RH  051%=      5-min Rain = 0
KHO1 181340Z 19013KT 24/13 A3004 RMK A01 T02410134  RH  051%=      5-min Rain = 0
KHO1 181341Z 19011KT 24/13 A3005 RMK A01 T02420134  RH  051%=      5-min Rain = 0
KHO1 181342Z 20011KT 24/14 A3005 RMK A01 T02430135  RH  051%=      5-min Rain = 0
KHO1 181343Z 19011KT 24/14 A3005 RMK A01 T02430135  RH  051%=      5-min Rain = 0
KHO1 181344Z 19014KT 24/13 A3005 RMK A01 T02430134  RH  050%=      5-min Rain = 0
KHO1 181345Z 19014KT 24/13 A3005 RMK A01 T02430134  RH  050%=      5-min Rain = 0
KHO1 181346Z 19012KT 24/14 A3004 RMK A01 T02430135  RH  051%=      5-min Rain = 0
KHO1 181347Z 20011KT 24/14 A3004 RMK A01 T02440135  RH  051%=      5-min Rain = 0
KHO1 181348Z 19014KT 24/14 A3004 RMK A01 T02440135  RH  050%=      5-min Rain = 0
KHO1 181349Z 19013KT 25/14 A3004 RMK A01 T02450135  RH  050%=      5-min Rain = 0
KHO1 181350Z 19015KT 25/13 A3004 RMK A01 T02450134  RH  050%=      5-min Rain = 0
KHO1 181351Z 19011KT 25/14 A3005 RMK A01 T02450135  RH  050%=      5-min Rain = 0
KHO1 181352Z 19013KT 25/14 A3005 RMK A01 T02460135  RH  050%=      5-min Rain = 0
KHO1 181353Z 19013KT 25/14 A3005 RMK A01 T02460135  RH  050%=      5-min Rain = 0
KHO1 181354Z 19011KT 25/14 A3005 RMK A01 T02470136  RH  050%=      5-min Rain = 0
KHO1 181355Z 20012KT 25/14 A3005 RMK A01 T02470136  RH  050%=      5-min Rain = 0
KHO1 181356Z 19012KT 25/14 A3005 RMK A01 T02480136  RH  050%=      5-min Rain = 0
KHO1 181357Z 19014KT 25/14 A3005 RMK A01 T02480135  RH  049%=      5-min Rain = 0
KHO1 181358Z 19013KT 25/14 A3005 RMK A01 T02480135  RH  049%=      5-min Rain = 0
KHO1 181359Z 19012KT 25/14 A3005 RMK A01 T02480135  RH  050%=      5-min Rain = 0
KHO1 181400Z 20011KT 25/14 A3005 RMK A01 T02480136  RH  050%=      5-min Rain = 0
KHO1 181401Z 19011KT 25/14 A3004 RMK A01 T02500137  RH  049%=      5-min Rain = 0
KHO1 181402Z 19011KT 25/14 A3004 RMK A01 T02510137  RH  049%=      5-min Rain = 0
KHO1 181403Z 20012KT 25/14 A3004 RMK A01 T02510137  RH  049%=      5-min Rain = 0
KHO1 181404Z 20014KT 25/14 A3005 RMK A01 T02510136  RH  049%=      5-min Rain = 0
KHO1 181405Z 20012KT 25/14 A3005 RMK A01 T02500135  RH  049%=      5-min Rain = 0
KHO1 181406Z 20013KT 25/14 A3004 RMK A01 T02500136  RH  049%=      5-min Rain = 0
KHO1 181407Z 20012KT 25/14 A3005 RMK A01 T02510136  RH  049%=      5-min Rain = 0
KHO1 181408Z 20014KT 25/14 A3004 RMK A01 T02520136  RH  049%=      5-min Rain = 0
KHO1 181409Z 20013KT 25/14 A3005 RMK A01 T02520136  RH  048%=      5-min Rain = 0
KHO1 181410Z 19012KT 25/14 A3005 RMK A01 T02530137  RH  048%=      5-min Rain = 0
KHO1 181411Z 20015KT 25/14 A3004 RMK A01 T02530136  RH  048%=      5-min Rain = 0
KHO1 181412Z 20014KT 25/14 A3004 RMK A01 T02540136  RH  048%=      5-min Rain = 0
KHO1 181413Z 20014KT 26/14 A3004 RMK A01 T02550137  RH  048%=      5-min Rain = 0
KHO1 181414Z 20012KT 25/14 A3004 RMK A01 T02540136  RH  048%=      5-min Rain = 0
KHO1 181415Z 20012KT 25/14 A3004 RMK A01 T02540136  RH  048%=      5-min Rain = 0
KHO1 181416Z 19012KT 26/14 A3004 RMK A01 T02550137  RH  048%=      5-min Rain = 0
KHO1 181417Z 19010KT 26/14 A3004 RMK A01 T02560138  RH  048%=      5-min Rain = 0
KHO1 181418Z 20011KT 26/14 A3005 RMK A01 T02590139  RH  048%=      5-min Rain = 0
KHO1 181419Z 19012KT 26/14 A3004 RMK A01 T02580137  RH  047%=      5-min Rain = 0
KHO1 181420Z 20012KT 26/14 A3005 RMK A01 T02590138  RH  047%=      5-min Rain = 0
KHO1 181421Z 19010KT 26/14 A3005 RMK A01 T02600137  RH  047%=      5-min Rain = 0
KHO1 181422Z 20010KT 26/14 A3005 RMK A01 T02610138  RH  047%=      5-min Rain = 0
KHO1 181423Z 20010KT 26/14 A3005 RMK A01 T02610138  RH  047%=      5-min Rain = 0
KHO1 181424Z 20013KT 26/14 A3005 RMK A01 T02610136  RH  046%=      5-min Rain = 0
KHO1 181425Z 19012KT 26/14 A3004 RMK A01 T02610138  RH  047%=      5-min Rain = 0
KHO1 181426Z 19012KT 26/14 A3005 RMK A01 T02610137  RH  046%=      5-min Rain = 0
KHO1 181427Z 20013KT 26/14 A3004 RMK A01 T02610137  RH  046%=      5-min Rain = 0
KHO1 181428Z 19013KT 26/14 A3005 RMK A01 T02610137  RH  046%=      5-min Rain = 0
KHO1 181429Z 19012KT 26/14 A3004 RMK A01 T02630138  RH  046%=      5-min Rain = 0
KHO1 181430Z 19012KT 26/14 A3004 RMK A01 T02630137  RH  046%=      5-min Rain = 0
KHO1 181431Z 19011KT 26/14 A3004 RMK A01 T02630138  RH  046%=      5-min Rain = 0
KHO1 181432Z 18012KT 26/14 A3004 RMK A01 T02640137  RH  045%=      5-min Rain = 0
KHO1 181433Z 20011KT 27/14 A3004 RMK A01 T02650138  RH  046%=      5-min Rain = 0
KHO1 181434Z 19011KT 27/14 A3004 RMK A01 T02660138  RH  045%=      5-min Rain = 0
KHO1 181435Z 20012KT 27/14 A3004 RMK A01 T02650137  RH  045%=      5-min Rain = 0
KHO1 181436Z 19013KT 27/14 A3004 RMK A01 T02660137  RH  045%=      5-min Rain = 0
KHO1 181437Z 20013KT 27/14 A3004 RMK A01 T02660136  RH  045%=      5-min Rain = 0
KHO1 181438Z 19013KT 27/14 A3004 RMK A01 T02660137  RH  045%=      5-min Rain = 0
KHO1 181439Z 19012KT 27/14 A3004 RMK A01 T02670137  RH  045%=      5-min Rain = 0
KHO1 181440Z 20010KT 27/14 A3004 RMK A01 T02690138  RH  045%=      5-min Rain = 0
KHO1 181441Z 20011KT 27/14 A3004 RMK A01 T02720139  RH  044%=      5-min Rain = 0
KHO1 181442Z 21011KT 27/14 A3004 RMK A01 T02730137  RH  043%=      5-min Rain = 0
KHO1 181443Z 20012KT 27/14 A3004 RMK A01 T02720137  RH  043%=      5-min Rain = 0
KHO1 181444Z 21011KT 27/14 A3005 RMK A01 T02740137  RH  043%=      5-min Rain = 0
KHO1 181445Z 21012KT 28/14 A3005 RMK A01 T02750137  RH  043%=      5-min Rain = 0
KHO1 181446Z 22013KT 27/13 A3005 RMK A01 T02730134  RH  042%=      5-min Rain = 0
KHO1 181447Z 20012KT 27/14 A3005 RMK A01 T02720135  RH  043%=      5-min Rain = 0
KHO1 181448Z 20012KT 27/14 A3004 RMK A01 T02730136  RH  043%=      5-min Rain = 0
KHO1 181449Z 20011KT 28/14 A3004 RMK A01 T02750137  RH  043%=      5-min Rain = 0
KHO1 181450Z 21010KT 28/14 A3004 RMK A01 T02750136  RH  042%=      5-min Rain = 0
KHO1 181451Z 20012KT 28/14 A3004 RMK A01 T02770137  RH  042%=      5-min Rain = 0
KHO1 181452Z 19013KT 28/13 A3004 RMK A01 T02770134  RH  042%=      5-min Rain = 0
KHO1 181453Z 21010KT 28/14 A3004 RMK A01 T02770136  RH  042%=      5-min Rain = 0
KHO1 181454Z 21011KT 28/14 A3004 RMK A01 T02790136  RH  042%=      5-min Rain = 0
KHO1 181455Z 22011KT 28/14 A3004 RMK A01 T02800136  RH  041%=      5-min Rain = 0
KHO1 181456Z 22011KT 28/13 A3004 RMK A01 T02790134  RH  041%=      5-min Rain = 0
KHO1 181457Z 22010KT 28/14 A3004 RMK A01 T02800136  RH  041%=      5-min Rain = 0
KHO1 181458Z 21012KT 28/14 A3004 RMK A01 T02800135  RH  041%=      5-min Rain = 0
KHO1 181459Z 21012KT 28/14 A3004 RMK A01 T02810135  RH  041%=      5-min Rain = 0
KHO1 181500Z 21012KT 28/14 A3004 RMK A01 T02810136  RH  041%=      5-min Rain = 0
KHO1 181501Z 22010KT 28/14 A3004 RMK A01 T02820136  RH  041%=      5-min Rain = 0
KHO1 181502Z 22010KT 28/14 A3004 RMK A01 T02830136  RH  040%=      5-min Rain = 0
KHO1 181503Z 21011KT 28/13 A3004 RMK A01 T02830133  RH  040%=      5-min Rain = 0
KHO1 181504Z 21011KT 28/13 A3004 RMK A01 T02820134  RH  040%=      5-min Rain = 0
KHO1 181505Z 21012KT 28/13 A3004 RMK A01 T02830134  RH  040%=      5-min Rain = 0
KHO1 181506Z 20011KT 28/13 A3004 RMK A01 T02820134  RH  040%=      5-min Rain = 0
KHO1 181507Z 20011KT 28/14 A3004 RMK A01 T02830135  RH  040%=      5-min Rain = 0
KHO1 181508Z 21012KT 28/13 A3004 RMK A01 T02840133  RH  040%=      5-min Rain = 0
KHO1 181509Z 21012KT 28/13 A3004 RMK A01 T02820134  RH  040%=      5-min Rain = 0
KHO1 181510Z 20009KT 28/14 A3004 RMK A01 T02840135  RH  040%=      5-min Rain = 0
KHO1 181511Z 21010KT 29/14 A3004 RMK A01 T02850135  RH  040%=      5-min Rain = 0
KHO1 181512Z 22011KT 29/13 A3004 RMK A01 T02860132  RH  039%=      5-min Rain = 0
KHO1 181513Z 23009KT 29/13 A3004 RMK A01 T02850132  RH  039%=      5-min Rain = 0
KHO1 181514Z 23010KT 29/14 A3004 RMK A01 T02860135  RH  040%=      5-min Rain = 0
KHO1 181515Z 21011KT 29/14 A3004 RMK A01 T02870136  RH  040%=      5-min Rain = 0
KHO1 181516Z 21011KT 29/13 A3004 RMK A01 T02870134  RH  039%=      5-min Rain = 0
KHO1 181517Z 21009KT 29/14 A3004 RMK A01 T02870136  RH  039%=      5-min Rain = 0
KHO1 181518Z 20008KT 29/13 A3004 RMK A01 T02870134  RH  039%=      5-min Rain = 0
KHO1 181519Z 19010KT 29/13 A3004 RMK A01 T02850133  RH  039%=      5-min Rain = 0
KHO1 181520Z 20009KT 29/14 A3004 RMK A01 T02860137  RH  040%=      5-min Rain = 0
KHO1 181521Z 19010KT 29/14 A3004 RMK A01 T02890135  RH  039%=      5-min Rain = 0
KHO1 181522Z 20011KT 29/14 A3004 RMK A01 T02880135  RH  039%=      5-min Rain = 0
KHO1 181523Z 20009KT 29/14 A3004 RMK A01 T02880137  RH  039%=      5-min Rain = 0
KHO1 181524Z 23009KT 29/14 A3004 RMK A01 T02890135  RH  039%=      5-min Rain = 0
KHO1 181525Z 22010KT 29/13 A3004 RMK A01 T02890133  RH  038%=      5-min Rain = 0
KHO1 181526Z 22009KT 29/14 A3004 RMK A01 T02900135  RH  039%=      5-min Rain = 0
KHO1 181527Z 20008KT 29/13 A3004 RMK A01 T02910134  RH  038%=      5-min Rain = 0
KHO1 181528Z 20010KT 29/13 A3004 RMK A01 T02920133  RH  038%=      5-min Rain = 0
KHO1 181529Z 20009KT 29/13 A3004 RMK A01 T02900133  RH  038%=      5-min Rain = 0
KHO1 181530Z 22011KT 29/13 A3004 RMK A01 T02900134  RH  038%=      5-min Rain = 0
KHO1 181531Z 21010KT 29/14 A3004 RMK A01 T02910137  RH  039%=      5-min Rain = 0
KHO1 181532Z 20009KT 29/14 A3004 RMK A01 T02930136  RH  038%=      5-min Rain = 0
KHO1 181533Z 19010KT 29/14 A3004 RMK A01 T02920136  RH  038%=      5-min Rain = 0
KHO1 181534Z 19010KT 29/14 A3004 RMK A01 T02930137  RH  038%=      5-min Rain = 0
KHO1 181535Z 19009KT 29/13 A3004 RMK A01 T02920134  RH  038%=      5-min Rain = 0
KHO1 181536Z 20011KT 29/14 A3004 RMK A01 T02910136  RH  038%=      5-min Rain = 0
KHO1 181537Z 22011KT 29/13 A3004 RMK A01 T02920134  RH  038%=      5-min Rain = 0
KHO1 181538Z 22009KT 29/14 A3004 RMK A01 T02920135  RH  038%=      5-min Rain = 0
KHO1 181539Z 23008KT 29/14 A3004 RMK A01 T02930135  RH  038%=      5-min Rain = 0
KHO1 181540Z 22010KT 29/14 A3004 RMK A01 T02930137  RH  038%=      5-min Rain = 0
KHO1 181541Z 22009KT 30/14 A3004 RMK A01 T02950137  RH  038%=      5-min Rain = 0
KHO1 181542Z 20009KT 30/14 A3004 RMK A01 T02970137  RH  038%=      5-min Rain = 0
KHO1 181543Z 20008KT 30/14 A3004 RMK A01 T02980138  RH  038%=      5-min Rain = 0
KHO1 181544Z 21008KT 30/14 A3004 RMK A01 T02970135  RH  037%=      5-min Rain = 0
KHO1 181545Z 21010KT 30/14 A3004 RMK A01 T02960135  RH  037%=      5-min Rain = 0
KHO1 181546Z 21012KT 30/13 A3004 RMK A01 T02950132  RH  037%=      5-min Rain = 0
KHO1 181547Z 22008KT 29/13 A3004 RMK A01 T02920132  RH  037%=      5-min Rain = 0
KHO1 181548Z 22008KT 29/13 A3004 RMK A01 T02920134  RH  038%=      5-min Rain = 0
KHO1 181549Z 22010KT 30/14 A3004 RMK A01 T02950137  RH  038%=      5-min Rain = 0
KHO1 181550Z 23009KT 30/14 A3004 RMK A01 T02950137  RH  038%=      5-min Rain = 0
KHO1 181551Z 20006KT 30/14 A3004 RMK A01 T02970138  RH  038%=      5-min Rain = 0
KHO1 181552Z 19009KT 30/14 A3004 RMK A01 T03000136  RH  037%=      5-min Rain = 0
KHO1 181553Z 20011KT 30/13 A3004 RMK A01 T02980134  RH  036%=      5-min Rain = 0
KHO1 181554Z 20009KT 30/14 A3004 RMK A01 T02970135  RH  037%=      5-min Rain = 0
KHO1 181555Z 20009KT 30/14 A3004 RMK A01 T02980138  RH  038%=      5-min Rain = 0
KHO1 181556Z 19007KT 30/13 A3004 RMK A01 T02980134  RH  037%=      5-min Rain = 0
KHO1 181557Z 19008KT 30/14 A3004 RMK A01 T02990136  RH  037%=      5-min Rain = 0
KHO1 181558Z 20011KT 30/14 A3004 RMK A01 T03010137  RH  037%=      5-min Rain = 0
KHO1 181559Z 21011KT 30/14 A3004 RMK A01 T03040136  RH  036%=      5-min Rain = 0
KHO1 181600Z 20011KT 30/13 A3004 RMK A01 T03030134  RH  036%=      5-min Rain = 0
KHO1 181601Z 19009KT 30/13 A3004 RMK A01 T03010134  RH  036%=      5-min Rain = 0
KHO1 181602Z 20008KT 30/13 A3004 RMK A01 T03010134  RH  036%=      5-min Rain = 0
KHO1 181603Z 20009KT 30/13 A3004 RMK A01 T03020134  RH  036%=      5-min Rain = 0
KHO1 181604Z 21009KT 30/13 A3004 RMK A01 T03030133  RH  035%=      5-min Rain = 0
KHO1 181605Z 21007KT 30/13 A3004 RMK A01 T03040132  RH  035%=      5-min Rain = 0
KHO1 181606Z 23008KT 30/13 A3004 RMK A01 T03040132  RH  035%=      5-min Rain = 0
KHO1 181607Z 22007KT 30/14 A3004 RMK A01 T03040135  RH  036%=      5-min Rain = 0
KHO1 181608Z 23007KT 31/14 A3004 RMK A01 T03070137  RH  035%=      5-min Rain = 0
KHO1 181609Z 22010KT 31/14 A3004 RMK A01 T03080135  RH  035%=      5-min Rain = 0
KHO1 181610Z 20010KT 31/13 A3004 RMK A01 T03070133  RH  034%=      5-min Rain = 0
KHO1 181611Z 20010KT 31/13 A3004 RMK A01 T03060133  RH  035%=      5-min Rain = 0
KHO1 181612Z 21008KT 31/13 A3004 RMK A01 T03050132  RH  035%=      5-min Rain = 0
KHO1 181613Z 22010KT 30/13 A3004 RMK A01 T03040131  RH  035%=      5-min Rain = 0
KHO1 181614Z 21011KT 31/13 A3004 RMK A01 T03060132  RH  034%=      5-min Rain = 0
KHO1 181615Z 21009KT 31/13 A3004 RMK A01 T03060131  RH  034%=      5-min Rain = 0
KHO1 181616Z 21008KT 31/13 A3004 RMK A01 T03070134  RH  035%=      5-min Rain = 0
KHO1 181617Z 21007KT 31/13 A3004 RMK A01 T03060131  RH  034%=      5-min Rain = 0
KHO1 181618Z 21007KT 31/14 A3004 RMK A01 T03070136  RH  035%=      5-min Rain = 0
KHO1 181619Z 21008KT 31/13 A3004 RMK A01 T03080134  RH  034%=      5-min Rain = 0
KHO1 181620Z 19008KT 31/14 A3004 RMK A01 T03110136  RH  035%=      5-min Rain = 0
KHO1 181621Z 20008KT 31/14 A3004 RMK A01 T03140135  RH  034%=      5-min Rain = 0
KHO1 181622Z 22008KT 32/13 A3004 RMK A01 T03170133  RH  033%=      5-min Rain = 0
KHO1 181623Z 22009KT 31/12 A3004 RMK A01 T03140124  RH  031%=      5-min Rain = 0
KHO1 181624Z 22009KT 31/13 A3004 RMK A01 T03110127  RH  032%=      5-min Rain = 0
KHO1 181625Z 22008KT 31/13 A3004 RMK A01 T03110130  RH  033%=      5-min Rain = 0
KHO1 181626Z 22009KT 31/13 A3004 RMK A01 T03120129  RH  033%=      5-min Rain = 0
KHO1 181627Z 22009KT 31/13 A3004 RMK A01 T03100127  RH  033%=      5-min Rain = 0
KHO1 181628Z 20011KT 31/13 A3004 RMK A01 T03110131  RH  033%=      5-min Rain = 0
KHO1 181629Z 21009KT 31/13 A3004 RMK A01 T03120131  RH  033%=      5-min Rain = 0
KHO1 181630Z 21008KT 31/13 A3004 RMK A01 T03130130  RH  033%=      5-min Rain = 0
KHO1 181631Z 19008KT 32/13 A3003 RMK A01 T03150131  RH  033%=      5-min Rain = 0
KHO1 181632Z 20010KT 32/13 A3003 RMK A01 T03150129  RH  032%=      5-min Rain = 0
KHO1 181633Z 20009KT 31/13 A3003 RMK A01 T03140130  RH  033%=      5-min Rain = 0
KHO1 181634Z 18008KT 32/13 A3003 RMK A01 T03170132  RH  033%=      5-min Rain = 0
KHO1 181635Z 18009KT 32/13 A3003 RMK A01 T03180130  RH  032%=      5-min Rain = 0
KHO1 181636Z 17010KT 32/13 A3003 RMK A01 T03150128  RH  032%=      5-min Rain = 0
KHO1 181637Z 19011KT 31/13 A3003 RMK A01 T03140129  RH  032%=      5-min Rain = 0
KHO1 181638Z 18010KT 31/13 A3003 RMK A01 T03140129  RH  032%=      5-min Rain = 0
KHO1 181639Z 19008KT 32/13 A3003 RMK A01 T03160130  RH  032%=      5-min Rain = 0
KHO1 181640Z 18008KT 32/13 A3003 RMK A01 T03160130  RH  032%=      5-min Rain = 0
KHO1 181641Z 19012KT 32/12 A3003 RMK A01 T03170124  RH  031%=      5-min Rain = 0
KHO1 181642Z 18010KT 32/13 A3003 RMK A01 T03170127  RH  031%=      5-min Rain = 0
KHO1 181643Z 19009KT 32/13 A3003 RMK A01 T03180127  RH  031%=      5-min Rain = 0
KHO1 181644Z 21011KT 32/13 A3003 RMK A01 T03200125  RH  030%=      5-min Rain = 0
KHO1 181645Z 22010KT 32/13 A3003 RMK A01 T03200127  RH  031%=      5-min Rain = 0
KHO1 181646Z 18011KT 32/13 A3003 RMK A01 T03200127  RH  031%=      5-min Rain = 0
KHO1 181647Z 19009KT 32/13 A3003 RMK A01 T03190126  RH  031%=      5-min Rain = 0
KHO1 181648Z 19012KT 32/13 A3003 RMK A01 T03200127  RH  031%=      5-min Rain = 0
KHO1 181649Z 19012KT 32/13 A3003 RMK A01 T03220128  RH  031%=      5-min Rain = 0
KHO1 181650Z 19011KT 32/13 A3003 RMK A01 T03200127  RH  031%=      5-min Rain = 0
KHO1 181651Z 19010KT 32/13 A3003 RMK A01 T03170126  RH  031%=      5-min Rain = 0
KHO1 181652Z 19008KT 32/13 A3003 RMK A01 T03180125  RH  031%=      5-min Rain = 0
KHO1 181653Z 18008G15KT 32/13 A3003 RMK A01 T03170126  RH  031%=      5-min Rain = 0
KHO1 181654Z 18012KT 32/12 A3003 RMK A01 T03220123  RH  030%=      5-min Rain = 0
KHO1 181655Z 18011KT 32/12 A3003 RMK A01 T03230123  RH  029%=      5-min Rain = 0
KHO1 181656Z 21009KT 33/13 A3003 RMK A01 T03260125  RH  029%=      5-min Rain = 0
KHO1 181657Z 19011KT 33/12 A3003 RMK A01 T03290123  RH  029%=      5-min Rain = 0
KHO1 181658Z 20010KT 33/12 A3003 RMK A01 T03280121  RH  028%=      5-min Rain = 0
KHO1 181659Z 21009KT 33/12 A3003 RMK A01 T03260120  RH  029%=      5-min Rain = 0
KHO1 181700Z 21008KT 32/12 A3003 RMK A01 T03230122  RH  029%=      5-min Rain = 0
KHO1 181701Z 21010KT 32/13 A3003 RMK A01 T03240126  RH  030%=      5-min Rain = 0
KHO1 181702Z 19011KT 33/12 A3003 RMK A01 T03280124  RH  029%=      5-min Rain = 0
KHO1 181703Z 19009KT 33/12 A3003 RMK A01 T03260121  RH  029%=      5-min Rain = 0
KHO1 181704Z 19011KT 33/12 A3003 RMK A01 T03280124  RH  029%=      5-min Rain = 0
KHO1 181705Z 19006KT 33/13 A3003 RMK A01 T03310126  RH  029%=      5-min Rain = 0
KHO1 181706Z 20007KT 33/12 A3003 RMK A01 T03300121  RH  028%=      5-min Rain = 0
KHO1 181707Z 19008KT 33/13 A3003 RMK A01 T03300125  RH  029%=      5-min Rain = 0
KHO1 181708Z 20007KT 33/13 A3003 RMK A01 T03330127  RH  029%=      5-min Rain = 0
KHO1 181709Z 19010KT 33/12 A3003 RMK A01 T03320121  RH  028%=      5-min Rain = 0
KHO1 181710Z 17010KT 33/12 A3003 RMK A01 T03300119  RH  028%=      5-min Rain = 0
KHO1 181711Z 18011KT 33/12 A3003 RMK A01 T03310119  RH  028%=      5-min Rain = 0
KHO1 181712Z 20010KT 33/12 A3003 RMK A01 T03310115  RH  027%=      5-min Rain = 0
KHO1 181713Z 19008KT 33/12 A3003 RMK A01 T03320117  RH  027%=      5-min Rain = 0
KHO1 181714Z 20012KT 33/11 A3003 RMK A01 T03320114  RH  026%=      5-min Rain = 0
KHO1 181715Z 23009KT 33/12 A3003 RMK A01 T03320119  RH  027%=      5-min Rain = 0
KHO1 181716Z 22008KT 33/12 A3003 RMK A01 T03320120  RH  028%=      5-min Rain = 0
KHO1 181717Z 19010G15KT 33/12 A3003 RMK A01 T03320118  RH  027%=      5-min Rain = 0
KHO1 181718Z 18013KT 33/12 A3003 RMK A01 T03330118  RH  027%=      5-min Rain = 0
KHO1 181719Z 19012KT 33/12 A3003 RMK A01 T03320118  RH  027%=      5-min Rain = 0
KHO1 181720Z 20012KT 33/12 A3003 RMK A01 T03310118  RH  027%=      5-min Rain = 0
KHO1 181721Z 20010KT 33/12 A3003 RMK A01 T03290118  RH  028%=      5-min Rain = 0
KHO1 181722Z 18010KT 33/12 A3003 RMK A01 T03310123  RH  028%=      5-min Rain = 0
KHO1 181723Z 18012KT 34/12 A3003 RMK A01 T03350122  RH  027%=      5-min Rain = 0
KHO1 181724Z 19011KT 33/12 A3002 RMK A01 T03340124  RH  028%=      5-min Rain = 0
KHO1 181725Z 21010G15KT 34/12 A3003 RMK A01 T03370120  RH  027%=      5-min Rain = 0
KHO1 181726Z 21011KT 34/12 A3003 RMK A01 T03370124  RH  027%=      5-min Rain = 0
KHO1 181727Z 20012KT 34/12 A3003 RMK A01 T03380120  RH  027%=      5-min Rain = 0
KHO1 181728Z 21009KT 34/12 A3003 RMK A01 T03360116  RH  026%=      5-min Rain = 0
KHO1 181729Z 22011KT 34/11 A3003 RMK A01 T03360113  RH  026%=      5-min Rain = 0
KHO1 181730Z 20010KT 34/12 A3003 RMK A01 T03370115  RH  026%=      5-min Rain = 0
KHO1 181731Z 19012KT 34/12 A3003 RMK A01 T03380119  RH  027%=      5-min Rain = 0
KHO1 181732Z 21011KT 34/12 A3003 RMK A01 T03370118  RH  026%=      5-min Rain = 0
KHO1 181733Z 22009KT 34/12 A3003 RMK A01 T03350116  RH  026%=      5-min Rain = 0
KHO1 181734Z 19010KT 34/12 A3003 RMK A01 T03370118  RH  026%=      5-min Rain = 0
KHO1 181735Z 20010KT 34/12 A3003 RMK A01 T03360118  RH  027%=      5-min Rain = 0
KHO1 181736Z 21009KT 34/12 A3003 RMK A01 T03350119  RH  027%=      5-min Rain = 0
KHO1 181737Z 19009G15KT 34/12 A3003 RMK A01 T03350121  RH  027%=      5-min Rain = 0
KHO1 181738Z 18013KT 34/12 A3003 RMK A01 T03370120  RH  027%=      5-min Rain = 0
KHO1 181739Z 20010KT 34/12 A3003 RMK A01 T03390121  RH  027%=      5-min Rain = 0
KHO1 181740Z 21011KT 34/12 A3003 RMK A01 T03410120  RH  026%=      5-min Rain = 0
KHO1 181741Z 20011KT 34/12 A3003 RMK A01 T03430116  RH  025%=      5-min Rain = 0
KHO1 181742Z 20009KT 34/11 A3003 RMK A01 T03410109  RH  024%=      5-min Rain = 0
KHO1 181743Z 20011KT 34/11 A3003 RMK A01 T03410109  RH  024%=      5-min Rain = 0
KHO1 181744Z 19010KT 34/11 A3003 RMK A01 T03390110  RH  025%=      5-min Rain = 0
KHO1 181745Z 19008KT 34/11 A3002 RMK A01 T03390113  RH  025%=      5-min Rain = 0
KHO1 181746Z 18011KT 34/11 A3002 RMK A01 T03410112  RH  025%=      5-min Rain = 0
KHO1 181747Z 18013KT 34/11 A3002 RMK A01 T03420109  RH  024%=      5-min Rain = 0
KHO1 181748Z 20014KT 34/11 A3002 RMK A01 T03440112  RH  024%=      5-min Rain = 0
KHO1 181749Z 20011KT 34/11 A3002 RMK A01 T03440113  RH  025%=      5-min Rain = 0
KHO1 181750Z 21010KT 34/11 A3002 RMK A01 T03420112  RH  025%=      5-min Rain = 0
KHO1 181751Z 21009KT 34/11 A3002 RMK A01 T03420109  RH  024%=      5-min Rain = 0
KHO1 181752Z 20009KT 34/11 A3002 RMK A01 T03410106  RH  024%=      5-min Rain = 0
KHO1 181753Z 20014KT 34/11 A3002 RMK A01 T03430108  RH  024%=      5-min Rain = 0
KHO1 181754Z 21011KT 34/11 A3002 RMK A01 T03420111  RH  025%=      5-min Rain = 0
KHO1 181755Z 20014KT 34/11 A3002 RMK A01 T03440109  RH  024%=      5-min Rain = 0
KHO1 181756Z 23010KT 34/11 A3002 RMK A01 T03410108  RH  024%=      5-min Rain = 0
KHO1 181757Z 23010G15KT 34/11 A3002 RMK A01 T03420111  RH  024%=      5-min Rain = 0
KHO1 181758Z 21013KT 35/11 A3002 RMK A01 T03460112  RH  024%=      5-min Rain = 0
KHO1 181759Z 21011KT 35/11 A3002 RMK A01 T03490110  RH  024%=      5-min Rain = 0
KHO1 181800Z 19011KT 35/11 A3002 RMK A01 T03480106  RH  023%=      5-min Rain = 0
KHO1 181801Z 20014KT 35/11 A3002 RMK A01 T03460108  RH  024%=      5-min Rain = 0
KHO1 181802Z 19015G23KT 35/11 A3002 RMK A01 T03490110  RH  024%=      5-min Rain = 0
KHO1 181803Z 20016G23KT 35/11 A3002 RMK A01 T03480105  RH  023%=      5-min Rain = 0
KHO1 181804Z 19015KT 35/10 A3002 RMK A01 T03470103  RH  023%=      5-min Rain = 0
KHO1 181805Z 20014KT 35/11 A3002 RMK A01 T03450109  RH  024%=      5-min Rain = 0
KHO1 181806Z 21011KT 35/11 A3002 RMK A01 T03450111  RH  024%=      5-min Rain = 0
KHO1 181807Z 20013G18KT 34/10 A3002 RMK A01 T03440104  RH  023%=      5-min Rain = 0
KHO1 181808Z 23014KT 35/10 A3002 RMK A01 T03480101  RH  022%=      5-min Rain = 0
KHO1 181809Z 23013KT 35/10 A3002 RMK A01 T03520103  RH  022%=      5-min Rain = 0
KHO1 181810Z 22014KT 35/10 A3002 RMK A01 T03520099  RH  022%=      5-min Rain = 0
KHO1 181811Z 21012KT 35/10 A3002 RMK A01 T03480103  RH  022%=      5-min Rain = 0
KHO1 181812Z 22012KT 35/10 A3002 RMK A01 T03460103  RH  023%=      5-min Rain = 0
KHO1 181813Z 21014KT 35/11 A3002 RMK A01 T03470105  RH  023%=      5-min Rain = 0
KHO1 181814Z 20012KT 35/10 A3002 RMK A01 T03510104  RH  022%=      5-min Rain = 0
KHO1 181815Z 22013KT 35/10 A3002 RMK A01 T03530103  RH  022%=      5-min Rain = 0
KHO1 181816Z 22012KT 35/10 A3002 RMK A01 T03510098  RH  021%=      5-min Rain = 0
KHO1 181817Z 23010KT 35/11 A3002 RMK A01 T03500106  RH  023%=      5-min Rain = 0
KHO1 181818Z 23009KT 35/11 A3002 RMK A01 T03540107  RH  022%=      5-min Rain = 0
KHO1 181819Z 21012G17KT 36/11 A3002 RMK A01 T03570108  RH  022%=      5-min Rain = 0
KHO1 181820Z 21016G21KT 36/10 A3001 RMK A01 T03580104  RH  021%=      5-min Rain = 0
KHO1 181821Z 23014KT 35/10 A3002 RMK A01 T03530100  RH  021%=      5-min Rain = 0
KHO1 181822Z 21011KT 35/10 A3001 RMK A01 T03500104  RH  022%=      5-min Rain = 0
KHO1 181823Z 20012KT 35/11 A3001 RMK A01 T03520105  RH  022%=      5-min Rain = 0
KHO1 181824Z 19013KT 35/10 A3001 RMK A01 T03520103  RH  022%=      5-min Rain = 0
KHO1 181825Z 20019G27KT 35/10 A3001 RMK A01 T03520100  RH  022%=      5-min Rain = 0
KHO1 181826Z 23016KT 35/10 A3001 RMK A01 T03520101  RH  022%=      5-min Rain = 0
KHO1 181827Z 22018KT 35/10 A3001 RMK A01 T03510100  RH  022%=      5-min Rain = 0
KHO1 181828Z 22015KT 35/10 A3001 RMK A01 T03480098  RH  022%=      5-min Rain = 0
KHO1 181829Z 21012KT 35/10 A3001 RMK A01 T03480097  RH  022%=      5-min Rain = 0
KHO1 181830Z 21009KT 35/10 A3001 RMK A01 T03490100  RH  022%=      5-min Rain = 0
KHO1 181831Z 20010KT 35/10 A3001 RMK A01 T03520099  RH  021%=      5-min Rain = 0
KHO1 181832Z 22008KT 35/10 A3001 RMK A01 T03530100  RH  021%=      5-min Rain = 0
KHO1 181833Z 22013G18KT 36/10 A3001 RMK A01 T03560103  RH  022%=      5-min Rain = 0
KHO1 181834Z 23015G20KT 36/10 A3001 RMK A01 T03570097  RH  021%=      5-min Rain = 0
KHO1 181835Z 22012KT 35/10 A3001 RMK A01 T03510096  RH  021%=      5-min Rain = 0
KHO1 181836Z 21013KT 35/10 A3001 RMK A01 T03510095  RH  021%=      5-min Rain = 0
KHO1 181837Z 20010KT 35/10 A3001 RMK A01 T03510096  RH  021%=      5-min Rain = 0
KHO1 181838Z 21009KT 35/10 A3001 RMK A01 T03540100  RH  021%=      5-min Rain = 0
KHO1 181839Z 22012KT 36/10 A3001 RMK A01 T03550096  RH  021%=      5-min Rain = 0
KHO1 181840Z 22015G20KT 36/10 A3001 RMK A01 T03550099  RH  021%=      5-min Rain = 0
KHO1 181841Z 23009KT 35/10 A3001 RMK A01 T03530097  RH  021%=      5-min Rain = 0
KHO1 181842Z 23007KT 36/10 A3001 RMK A01 T03550101  RH  021%=      5-min Rain = 0
KHO1 181843Z 21009KT 36/10 A3001 RMK A01 T03550100  RH  021%=      5-min Rain = 0
KHO1 181844Z 20016KT 36/10 A3001 RMK A01 T03550098  RH  021%=      5-min Rain = 0
KHO1 181845Z 20015KT 36/10 A3001 RMK A01 T03550098  RH  021%=      5-min Rain = 0
KHO1 181846Z 21013KT 36/10 A3001 RMK A01 T03570100  RH  021%=      5-min Rain = 0
KHO1 181847Z 21013KT 36/10 A3001 RMK A01 T03560101  RH  021%=      5-min Rain = 0
KHO1 181848Z 21012KT 36/10 A3001 RMK A01 T03550096  RH  021%=      5-min Rain = 0
KHO1 181849Z 22008KT 35/10 A3001 RMK A01 T03510097  RH  021%=      5-min Rain = 0
KHO1 181850Z 21011KT 35/10 A3001 RMK A01 T03510102  RH  022%=      5-min Rain = 0
KHO1 181851Z 20010G16KT 35/10 A30 RMK A01 T03520103  RH  022%=      5-min Rain = 0
KHO1 181852Z 21010KT 36/11 A30 RMK A01 T03580108  RH  022%=      5-min Rain = 0
KHO1 181853Z 20010KT 36/11 A30 RMK A01 T03620105  RH  021%=      5-min Rain = 0
KHO1 181854Z 22015KT 36/10 A30 RMK A01 T03610100  RH  021%=      5-min Rain = 0
KHO1 181855Z 20015KT 36/10 A30 RMK A01 T03570100  RH  021%=      5-min Rain = 0
KHO1 181856Z 20015KT 36/10 A3001 RMK A01 T03550100  RH  021%=      5-min Rain = 0
KHO1 181857Z 21012G18KT 35/10 A3001 RMK A01 T03530097  RH  021%=      5-min Rain = 0
KHO1 181858Z 22010KT 35/10 A30 RMK A01 T03520098  RH  021%=      5-min Rain = 0
KHO1 181859Z 20011KT 35/10 A30 RMK A01 T03540099  RH  021%=      5-min Rain = 0
KHO1 181900Z 21011G16KT 36/10 A30 RMK A01 T03560098  RH  021%=      5-min Rain = 0
KHO1 181901Z 22009KT 35/10 A30 RMK A01 T03540095  RH  021%=      5-min Rain = 0
KHO1 181902Z 22013KT 35/10 A30 RMK A01 T03540097  RH  021%=      5-min Rain = 0
KHO1 181903Z 19009KT 35/10 A30 RMK A01 T03540097  RH  021%=      5-min Rain = 0
KHO1 181904Z 20008KT 36/10 A30 RMK A01 T03560099  RH  021%=      5-min Rain = 0
KHO1 181905Z 20009KT 36/10 A30 RMK A01 T03600100  RH  021%=      5-min Rain = 0
KHO1 181906Z 23008KT 36/10 A30 RMK A01 T03600096  RH  020%=      5-min Rain = 0
KHO1 181907Z 19008KT 36/10 A30 RMK A01 T03590100  RH  021%=      5-min Rain = 0
KHO1 181908Z 20011KT 36/10 A30 RMK A01 T03640098  RH  020%=      5-min Rain = 0
KHO1 181909Z 22016KT 36/09 A30 RMK A01 T03640094  RH  019%=      5-min Rain = 0
KHO1 181910Z 22011KT 36/09 A30 RMK A01 T03580092  RH  020%=      5-min Rain = 0
KHO1 181911Z 22013KT 36/09 A30 RMK A01 T03570093  RH  020%=      5-min Rain = 0
KHO1 181912Z 20010KT 36/09 A30 RMK A01 T03560093  RH  020%=      5-min Rain = 0
KHO1 181913Z 19010KT 35/10 A30 RMK A01 T03540095  RH  021%=      5-min Rain = 0
KHO1 181914Z 22013KT 36/10 A30 RMK A01 T03580097  RH  020%=      5-min Rain = 0
KHO1 181915Z 19014KT 36/09 A30 RMK A01 T03590094  RH  020%=      5-min Rain = 0
KHO1 181916Z 22013KT 36/09 A30 RMK A01 T03580093  RH  020%=      5-min Rain = 0
KHO1 181917Z 22012KT 36/09 A30 RMK A01 T03570094  RH  020%=      5-min Rain = 0
KHO1 181918Z 22012KT 36/10 A30 RMK A01 T03590095  RH  020%=      5-min Rain = 0
KHO1 181919Z 21011KT 36/09 A30 RMK A01 T03610092  RH  019%=      5-min Rain = 0
KHO1 181920Z 20010KT 36/09 A30 RMK A01 T03570090  RH  020%=      5-min Rain = 0
KHO1 181921Z 23011KT 36/10 A30 RMK A01 T03570095  RH  020%=      5-min Rain = 0
KHO1 181922Z 23010KT 36/10 A30 RMK A01 T03580097  RH  021%=      5-min Rain = 0
KHO1 181923Z 21014KT 36/10 A30 RMK A01 T03590097  RH  020%=      5-min Rain = 0
KHO1 181924Z 23017KT 36/10 A30 RMK A01 T03590095  RH  020%=      5-min Rain = 0
KHO1 181925Z 23012G20KT 36/09 A30 RMK A01 T03570094  RH  020%=      5-min Rain = 0
KHO1 181926Z 20009KT 36/09 A30 RMK A01 T03570090  RH  020%=      5-min Rain = 0
KHO1 181927Z 22011KT 35/09 A2999 RMK A01 T03540090  RH  020%=      5-min Rain = 0
KHO1 181928Z 22010KT 36/09 A2999 RMK A01 T03570093  RH  020%=      5-min Rain = 0
KHO1 181929Z 19012KT 36/09 A2999 RMK A01 T03600093  RH  020%=      5-min Rain = 0
KHO1 181930Z 20013KT 36/09 A2999 RMK A01 T03590091  RH  019%=      5-min Rain = 0
KHO1 181931Z 22015KT 36/09 A2999 RMK A01 T03600093  RH  020%=      5-min Rain = 0
KHO1 181932Z 21014KT 36/09 A2999 RMK A01 T03600091  RH  019%=      5-min Rain = 0
KHO1 181933Z 21011KT 36/09 A2999 RMK A01 T03580092  RH  020%=      5-min Rain = 0
KHO1 181934Z 22011KT 36/09 A2999 RMK A01 T03570091  RH  020%=      5-min Rain = 0
KHO1 181935Z 22014G19KT 36/09 A2999 RMK A01 T03580093  RH  020%=      5-min Rain = 0
KHO1 181936Z 22014KT 36/09 A2999 RMK A01 T03630092  RH  019%=      5-min Rain = 0
KHO1 181937Z 23015KT 36/09 A2999 RMK A01 T03600090  RH  019%=      5-min Rain = 0
KHO1 181938Z 22014KT 36/09 A2999 RMK A01 T03610091  RH  019%=      5-min Rain = 0
KHO1 181939Z 20013KT 36/09 A2999 RMK A01 T03610092  RH  019%=      5-min Rain = 0
KHO1 181940Z 20009KT 36/09 A2999 RMK A01 T03600094  RH  020%=      5-min Rain = 0
KHO1 181941Z 20008KT 36/09 A2999 RMK A01 T03600092  RH  020%=      5-min Rain = 0
KHO1 181942Z 21007KT 36/09 A2999 RMK A01 T03590093  RH  020%=      5-min Rain = 0
KHO1 181943Z 20010G15KT 36/10 A2999 RMK A01 T03610096  RH  020%=      5-min Rain = 0
KHO1 181944Z 20012KT 36/09 A2999 RMK A01 T03610089  RH  019%=      5-min Rain = 0
KHO1 181945Z 20014KT 36/09 A2999 RMK A01 T03610093  RH  020%=      5-min Rain = 0
KHO1 181946Z 21016KT 36/09 A2999 RMK A01 T03640093  RH  019%=      5-min Rain = 0
KHO1 181947Z 22016KT 36/09 A2999 RMK A01 T03640090  RH  019%=      5-min Rain = 0
KHO1 181948Z 20015KT 36/09 A2999 RMK A01 T03630086  RH  019%=      5-min Rain = 0
KHO1 181949Z 21011KT 36/09 A2999 RMK A01 T03600087  RH  019%=      5-min Rain = 0
KHO1 181950Z 21012KT 36/10 A2999 RMK A01 T03630095  RH  020%=      5-min Rain = 0
KHO1 181951Z 21011KT 36/09 A2999 RMK A01 T03630092  RH  019%=      5-min Rain = 0
KHO1 181952Z 19010G15KT 36/09 A2999 RMK A01 T03630092  RH  019%=      5-min Rain = 0
KHO1 181953Z 20008KT 36/09 A2999 RMK A01 T03610089  RH  019%=      5-min Rain = 0
KHO1 181954Z 19011G17KT 36/09 A2999 RMK A01 T03620091  RH  019%=      5-min Rain = 0
KHO1 181955Z 19013KT 36/09 A2999 RMK A01 T03630091  RH  019%=      5-min Rain = 0
KHO1 181956Z 21014KT 36/09 A2999 RMK A01 T03640093  RH  019%=      5-min Rain = 0
KHO1 181957Z 21013G18KT 36/09 A2999 RMK A01 T03630092  RH  019%=      5-min Rain = 0
KHO1 181958Z 21015KT 36/09 A2999 RMK A01 T03620092  RH  019%=      5-min Rain = 0
KHO1 181959Z 22014KT 36/09 A2999 RMK A01 T03620091  RH  019%=      5-min Rain = 0
KHO1 182000Z 24014KT 36/09 A2999 RMK A01 T03610091  RH  019%=      5-min Rain = 0
KHO1 182001Z 22011KT 36/09 A2998 RMK A01 T03610090  RH  019%=      5-min Rain = 0
KHO1 182002Z 22009KT 36/09 A2998 RMK A01 T03610091  RH  019%=      5-min Rain = 0
KHO1 182003Z 20013KT 37/10 A2998 RMK A01 T03660096  RH  019%=      5-min Rain = 0
KHO1 182004Z 20016KT 37/10 A2998 RMK A01 T03690095  RH  019%=      5-min Rain = 0
KHO1 182005Z 19015KT 37/09 A2998 RMK A01 T03660093  RH  019%=      5-min Rain = 0
KHO1 182006Z 19017KT 36/09 A2998 RMK A01 T03640093  RH  019%=      5-min Rain = 0
KHO1 182007Z 19016KT 36/09 A2998 RMK A01 T03630090  RH  019%=      5-min Rain = 0
KHO1 182008Z 18012G17KT 36/09 A2998 RMK A01 T03600090  RH  019%=      5-min Rain = 0
KHO1 182009Z 17010G15KT 36/09 A2998 RMK A01 T03610090  RH  019%=      5-min Rain = 0
KHO1 182010Z 21013G19KT 36/09 A2998 RMK A01 T03610090  RH  019%=      5-min Rain = 0
KHO1 182011Z 21015KT 36/09 A2998 RMK A01 T03620090  RH  019%=      5-min Rain = 0
KHO1 182012Z 21013KT 36/09 A2998 RMK A01 T03610089  RH  019%=      5-min Rain = 0
KHO1 182013Z 20007KT 36/09 A2998 RMK A01 T03620092  RH  019%=      5-min Rain = 0
KHO1 182014Z 20007KT 37/09 A2998 RMK A01 T03660093  RH  019%=      5-min Rain = 0
KHO1 182015Z 24007G12KT 37/09 A2998 RMK A01 T03690094  RH  019%=      5-min Rain = 0
KHO1 182016Z 23007KT 37/10 A2998 RMK A01 T03670095  RH  019%=      5-min Rain = 0
KHO1 182017Z 19014G20KT 37/10 A2997 RMK A01 T03670101  RH  020%=      5-min Rain = 0
KHO1 182018Z 19016KT 37/10 A2997 RMK A01 T03680099  RH  020%=      5-min Rain = 0
KHO1 182019Z 18012KT 37/10 A2997 RMK A01 T03670097  RH  019%=      5-min Rain = 0
KHO1 182020Z 19010KT 37/10 A2997 RMK A01 T03650097  RH  020%=      5-min Rain = 0
KHO1 182021Z 22012KT 37/10 A2997 RMK A01 T03690098  RH  019%=      5-min Rain = 0
KHO1 182022Z 19014KT 37/10 A2997 RMK A01 T03690097  RH  019%=      5-min Rain = 0
KHO1 182023Z 19013G18KT 37/10 A2997 RMK A01 T03700100  RH  020%=      5-min Rain = 0
KHO1 182024Z 19015G21KT 37/10 A2997 RMK A01 T03710100  RH  019%=      5-min Rain = 0
KHO1 182025Z 18015G21KT 37/10 A2997 RMK A01 T03700098  RH  019%=      5-min Rain = 0
KHO1 182026Z 17014KT 37/10 A2997 RMK A01 T03690101  RH  020%=      5-min Rain = 0
KHO1 182027Z 16010G15KT 37/10 A2997 RMK A01 T03680098  RH  020%=      5-min Rain = 0
KHO1 182028Z 17010KT 37/10 A2997 RMK A01 T03680100  RH  020%=      5-min Rain = 0
KHO1 182029Z 19009KT 37/10 A2997 RMK A01 T03690100  RH  020%=      5-min Rain = 0
KHO1 182030Z 20014KT 37/10 A2997 RMK A01 T03690099  RH  019%=      5-min Rain = 0
KHO1 182031Z 21014KT 37/10 A2997 RMK A01 T03680097  RH  019%=      5-min Rain = 0
KHO1 182032Z 21013KT 37/10 A2998 RMK A01 T03660097  RH  020%=      5-min Rain = 0
KHO1 182033Z 22012KT 37/10 A2998 RMK A01 T03650096  RH  020%=      5-min Rain = 0
KHO1 182034Z 22010KT 37/10 A2997 RMK A01 T03650098  RH  020%=      5-min Rain = 0
KHO1 182035Z 20010G16KT 37/10 A2997 RMK A01 T03670099  RH  020%=      5-min Rain = 0
KHO1 182036Z 21016KT 37/10 A2997 RMK A01 T03690100  RH  020%=      5-min Rain = 0
KHO1 182037Z 21015KT 37/10 A2997 RMK A01 T03700098  RH  019%=      5-min Rain = 0
KHO1 182038Z 20012KT 37/10 A2997 RMK A01 T03670100  RH  020%=      5-min Rain = 0
KHO1 182039Z 19014KT 37/10 A2997 RMK A01 T03670099  RH  020%=      5-min Rain = 0
KHO1 182040Z 19012KT 36/10 A2997 RMK A01 T03640097  RH  020%=      5-min Rain = 0
KHO1 182041Z 19011KT 36/10 A2997 RMK A01 T03640099  RH  020%=      5-min Rain = 0
KHO1 182042Z 19012KT 37/10 A2997 RMK A01 T03650098  RH  020%=      5-min Rain = 0
KHO1 182043Z 20009KT 37/10 A2997 RMK A01 T03650098  RH  020%=      5-min Rain = 0
KHO1 182044Z 19010KT 37/10 A2997 RMK A01 T03650100  RH  020%=      5-min Rain = 0
KHO1 182045Z 18011KT 37/10 A2997 RMK A01 T03690100  RH  020%=      5-min Rain = 0
KHO1 182046Z 16015KT 37/10 A2997 RMK A01 T03700098  RH  019%=      5-min Rain = 0
KHO1 182047Z 18015KT 37/10 A2997 RMK A01 T03720098  RH  019%=      5-min Rain = 0
KHO1 182048Z 20010KT 37/10 A2997 RMK A01 T03710097  RH  019%=      5-min Rain = 0
KHO1 182049Z 20011KT 37/09 A2997 RMK A01 T03670093  RH  019%=      5-min Rain = 0
KHO1 182050Z 19015KT 37/10 A2997 RMK A01 T03650095  RH  019%=      5-min Rain = 0
KHO1 182051Z 20015G20KT 37/10 A2997 RMK A01 T03650095  RH  019%=      5-min Rain = 0
KHO1 182052Z 19016KT 36/09 A2997 RMK A01 T03640094  RH  019%=      5-min Rain = 0
KHO1 182053Z 20013KT 36/10 A2997 RMK A01 T03640097  RH  020%=      5-min Rain = 0
KHO1 182054Z 21011KT 37/10 A2997 RMK A01 T03690098  RH  019%=      5-min Rain = 0
KHO1 182055Z 21009KT 37/10 A2997 RMK A01 T03670095  RH  019%=      5-min Rain = 0
KHO1 182056Z 19010KT 37/10 A2997 RMK A01 T03670096  RH  019%=      5-min Rain = 0
KHO1 182057Z 21010G16KT 37/09 A2997 RMK A01 T03680094  RH  019%=      5-min Rain = 0
KHO1 182058Z 19012KT 37/10 A2997 RMK A01 T03660095  RH  019%=      5-min Rain = 0
KHO1 182059Z 17011KT 37/10 A2997 RMK A01 T03660095  RH  019%=      5-min Rain = 0
KHO1 182100Z 17014KT 37/09 A2997 RMK A01 T03660094  RH  019%=      5-min Rain = 0
KHO1 182101Z 17009KT 37/10 A2997 RMK A01 T03700096  RH  019%=      5-min Rain = 0
KHO1 182102Z 16012KT 37/09 A2996 RMK A01 T03700090  RH  018%=      5-min Rain = 0
KHO1 182103Z 16009KT 37/09 A2996 RMK A01 T03670091  RH  019%=      5-min Rain = 0
KHO1 182104Z 19008KT 37/09 A2996 RMK A01 T03660091  RH  019%=      5-min Rain = 0
KHO1 182105Z 18011KT 37/09 A2996 RMK A01 T03660094  RH  019%=      5-min Rain = 0
KHO1 182106Z 17014KT 37/09 A2996 RMK A01 T03660094  RH  019%=      5-min Rain = 0
KHO1 182107Z 17014KT 37/10 A2996 RMK A01 T03690096  RH  019%=      5-min Rain = 0
KHO1 182108Z 19016KT 37/10 A2996 RMK A01 T03690096  RH  019%=      5-min Rain = 0
KHO1 182109Z 20015KT 37/10 A2996 RMK A01 T03670095  RH  019%=      5-min Rain = 0
KHO1 182110Z 20014KT 37/10 A2996 RMK A01 T03670096  RH  019%=      5-min Rain = 0
KHO1 182111Z 20010KT 37/10 A2996 RMK A01 T03660096  RH  019%=      5-min Rain = 0
KHO1 182112Z 19011KT 37/10 A2996 RMK A01 T03700098  RH  019%=      5-min Rain = 0
KHO1 182113Z 16014KT 37/09 A2996 RMK A01 T03700092  RH  018%=      5-min Rain = 0
KHO1 182114Z 15012KT 37/09 A2996 RMK A01 T03720093  RH  018%=      5-min Rain = 0
KHO1 182115Z 17017KT 37/09 A2996 RMK A01 T03730092  RH  018%=      5-min Rain = 0
KHO1 182116Z 18015KT 37/09 A2996 RMK A01 T03700090  RH  018%=      5-min Rain = 0
KHO1 182117Z 17014KT 37/09 A2996 RMK A01 T03660091  RH  019%=      5-min Rain = 0
KHO1 182118Z 18016KT 37/09 A2996 RMK A01 T03680093  RH  019%=      5-min Rain = 0
KHO1 182119Z 18011KT 37/09 A2996 RMK A01 T03650092  RH  019%=      5-min Rain = 0
KHO1 182120Z 18009KT 37/09 A2996 RMK A01 T03650089  RH  019%=      5-min Rain = 0
KHO1 182121Z 19008G16KT 36/09 A2996 RMK A01 T03640091  RH  019%=      5-min Rain = 0
KHO1 182122Z 20011KT 37/09 A2996 RMK A01 T03660094  RH  019%=      5-min Rain = 0
KHO1 182123Z 18012KT 37/09 A2996 RMK A01 T03660091  RH  019%=      5-min Rain = 0
KHO1 182124Z 17012KT 37/09 A2996 RMK A01 T03660090  RH  019%=      5-min Rain = 0
KHO1 182125Z 18011KT 37/09 A2996 RMK A01 T03650089  RH  019%=      5-min Rain = 0
KHO1 182126Z 17012KT 36/09 A2996 RMK A01 T03640088  RH  019%=      5-min Rain = 0
KHO1 182127Z 17011KT 37/09 A2996 RMK A01 T03660088  RH  018%=      5-min Rain = 0
KHO1 182128Z 17010KT 37/09 A2996 RMK A01 T03680089  RH  018%=      5-min Rain = 0
KHO1 182129Z 18016KT 37/09 A2996 RMK A01 T03700087  RH  018%=      5-min Rain = 0
KHO1 182130Z 17016KT 37/09 A2996 RMK A01 T03670085  RH  018%=      5-min Rain = 0
KHO1 182131Z 17014KT 37/09 A2996 RMK A01 T03650086  RH  018%=      5-min Rain = 0
KHO1 182132Z 17014KT 37/09 A2996 RMK A01 T03670086  RH  018%=      5-min Rain = 0
KHO1 182133Z 16011KT 37/09 A2996 RMK A01 T03650085  RH  018%=      5-min Rain = 0
KHO1 182134Z 16009G18KT 36/09 A2995 RMK A01 T03630088  RH  019%=      5-min Rain = 0
KHO1 182135Z 16017KT 37/09 A2995 RMK A01 T03660087  RH  018%=      5-min Rain = 0
KHO1 182136Z 16016KT 37/09 A2995 RMK A01 T03660087  RH  018%=      5-min Rain = 0
KHO1 182137Z 17014G19KT 37/09 A2996 RMK A01 T03660087  RH  018%=      5-min Rain = 0
KHO1 182138Z 18016KT 37/09 A2995 RMK A01 T03670085  RH  018%=      5-min Rain = 0
KHO1 182139Z 17016KT 37/08 A2995 RMK A01 T03660083  RH  018%=      5-min Rain = 0
KHO1 182140Z 16012KT 36/08 A2996 RMK A01 T03640084  RH  018%=      5-min Rain = 0
KHO1 182141Z 17011KT 36/09 A2995 RMK A01 T03640086  RH  018%=      5-min Rain = 0
KHO1 182142Z 18010KT 37/09 A2995 RMK A01 T03670089  RH  018%=      5-min Rain = 0
KHO1 182143Z 17008KT 37/09 A2995 RMK A01 T03650087  RH  018%=      5-min Rain = 0
KHO1 182144Z 17012KT 37/09 A2995 RMK A01 T03650089  RH  019%=      5-min Rain = 0
KHO1 182145Z 17013KT 37/09 A2995 RMK A01 T03670086  RH  018%=      5-min Rain = 0
KHO1 182146Z 17009KT 36/09 A2995 RMK A01 T03640086  RH  018%=      5-min Rain = 0
KHO1 182147Z 18012KT 36/09 A2995 RMK A01 T03640087  RH  019%=      5-min Rain = 0
KHO1 182148Z 18014KT 37/09 A2995 RMK A01 T03650086  RH  018%=      5-min Rain = 0
KHO1 182149Z 18011G16KT 36/09 A2995 RMK A01 T03640088  RH  019%=      5-min Rain = 0
KHO1 182150Z 19013KT 37/09 A2995 RMK A01 T03660089  RH  019%=      5-min Rain = 0
KHO1 182151Z 19013KT 37/09 A2995 RMK A01 T03690089  RH  018%=      5-min Rain = 0
KHO1 182152Z 19011KT 37/09 A2995 RMK A01 T03670089  RH  018%=      5-min Rain = 0
KHO1 182153Z 18011KT 37/09 A2995 RMK A01 T03650085  RH  018%=      5-min Rain = 0
KHO1 182154Z 15011KT 37/09 A2995 RMK A01 T03670087  RH  018%=      5-min Rain = 0
KHO1 182155Z 18012KT 37/09 A2995 RMK A01 T03670087  RH  018%=      5-min Rain = 0
KHO1 182156Z 18012KT 36/09 A2995 RMK A01 T03640086  RH  018%=      5-min Rain = 0
KHO1 182157Z 16010KT 36/09 A2995 RMK A01 T03640086  RH  018%=      5-min Rain = 0
KHO1 182158Z 15012KT 36/09 A2995 RMK A01 T03640087  RH  019%=      5-min Rain = 0
KHO1 182159Z 15011KT 37/09 A2995 RMK A01 T03650088  RH  018%=      5-min Rain = 0
KHO1 182200Z 16013KT 37/09 A2995 RMK A01 T03670087  RH  018%=      5-min Rain = 0
KHO1 182201Z 15011KT 36/09 A2995 RMK A01 T03640086  RH  018%=      5-min Rain = 0
KHO1 182202Z 15010KT 37/09 A2995 RMK A01 T03660086  RH  018%=      5-min Rain = 0
KHO1 182203Z 15011KT 37/09 A2995 RMK A01 T03690087  RH  018%=      5-min Rain = 0
KHO1 182204Z 15013KT 37/09 A2995 RMK A01 T03690085  RH  018%=      5-min Rain = 0
KHO1 182205Z 16009KT 37/09 A2995 RMK A01 T03680086  RH  018%=      5-min Rain = 0
KHO1 182206Z 17008KT 37/09 A2995 RMK A01 T03720088  RH  018%=      5-min Rain = 0
KHO1 182207Z 17009KT 37/09 A2995 RMK A01 T03740086  RH  017%=      5-min Rain = 0
KHO1 182208Z 19013KT 38/09 A2995 RMK A01 T03750085  RH  017%=      5-min Rain = 0
KHO1 182209Z 18013KT 37/08 A2995 RMK A01 T03720081  RH  017%=      5-min Rain = 0
KHO1 182210Z 18015KT 37/08 A2995 RMK A01 T03700083  RH  017%=      5-min Rain = 0
KHO1 182211Z 20013KT 37/09 A2995 RMK A01 T03680087  RH  018%=      5-min Rain = 0
KHO1 182212Z 20014KT 37/09 A2995 RMK A01 T03670090  RH  019%=      5-min Rain = 0
KHO1 182213Z 19011KT 37/09 A2995 RMK A01 T03660090  RH  019%=      5-min Rain = 0
KHO1 182214Z 21011KT 37/09 A2995 RMK A01 T03660090  RH  019%=      5-min Rain = 0
KHO1 182215Z 19011KT 37/09 A2995 RMK A01 T03660091  RH  019%=      5-min Rain = 0
KHO1 182216Z 18011KT 37/09 A2995 RMK A01 T03660089  RH  019%=      5-min Rain = 0
KHO1 182217Z 18009KT 37/09 A2995 RMK A01 T03660087  RH  018%=      5-min Rain = 0
KHO1 182218Z 16008KT 36/09 A2994 RMK A01 T03640086  RH  018%=      5-min Rain = 0
KHO1 182219Z 16014KT 37/09 A2994 RMK A01 T03650085  RH  018%=      5-min Rain = 0
KHO1 182220Z 16013KT 37/08 A2994 RMK A01 T03660083  RH  018%=      5-min Rain = 0
KHO1 182221Z 15013KT 36/08 A2994 RMK A01 T03640082  RH  018%=      5-min Rain = 0
KHO1 182222Z 17012KT 37/08 A2994 RMK A01 T03650083  RH  018%=      5-min Rain = 0
KHO1 182223Z 20012KT 37/09 A2994 RMK A01 T03660087  RH  018%=      5-min Rain = 0
KHO1 182224Z 18013KT 37/09 A2994 RMK A01 T03670091  RH  019%=      5-min Rain = 0
KHO1 182225Z 19011KT 36/09 A2994 RMK A01 T03640089  RH  019%=      5-min Rain = 0
KHO1 182226Z 20011KT 36/09 A2994 RMK A01 T03640092  RH  019%=      5-min Rain = 0
KHO1 182227Z 20011KT 37/09 A2994 RMK A01 T03660093  RH  019%=      5-min Rain = 0
KHO1 182228Z 20013KT 37/09 A2994 RMK A01 T03660090  RH  019%=      5-min Rain = 0
KHO1 182229Z 22007KT 36/09 A2994 RMK A01 T03620086  RH  019%=      5-min Rain = 0
KHO1 182230Z 16008KT 36/09 A2994 RMK A01 T03630090  RH  019%=      5-min Rain = 0
KHO1 182231Z 17010KT 37/09 A2994 RMK A01 T03670091  RH  019%=      5-min Rain = 0
KHO1 182232Z 17010KT 37/09 A2994 RMK A01 T03650086  RH  018%=      5-min Rain = 0
KHO1 182233Z 16010KT 37/08 A2994 RMK A01 T03660084  RH  018%=      5-min Rain = 0
KHO1 182234Z 17017G22KT 37/08 A2994 RMK A01 T03660082  RH  018%=      5-min Rain = 0
KHO1 182235Z 18015KT 37/08 A2994 RMK A01 T03670082  RH  018%=      5-min Rain = 0
KHO1 182236Z 17014KT 37/08 A2994 RMK A01 T03670081  RH  018%=      5-min Rain = 0
KHO1 182237Z 17014KT 36/08 A2994 RMK A01 T03640081  RH  018%=      5-min Rain = 0
KHO1 182238Z 17012KT 36/08 A2994 RMK A01 T03620082  RH  018%=      5-min Rain = 0
KHO1 182239Z 17008KT 36/09 A2994 RMK A01 T03620085  RH  018%=      5-min Rain = 0
KHO1 182240Z 17007KT 36/08 A2994 RMK A01 T03620082  RH  018%=      5-min Rain = 0
KHO1 182241Z 18012G17KT 36/08 A2994 RMK A01 T03630083  RH  018%=      5-min Rain = 0
KHO1 182242Z 20012KT 36/09 A2994 RMK A01 T03630086  RH  018%=      5-min Rain = 0
KHO1 182243Z 21008KT 36/08 A2994 RMK A01 T03610084  RH  018%=      5-min Rain = 0
KHO1 182244Z 21006KT 36/09 A2994 RMK A01 T03610086  RH  019%=      5-min Rain = 0
KHO1 182245Z 20007KT 36/09 A2994 RMK A01 T03630088  RH  019%=      5-min Rain = 0
KHO1 182246Z 17007KT 37/09 A2994 RMK A01 T03650087  RH  018%=      5-min Rain = 0
KHO1 182247Z 15012KT 37/08 A2994 RMK A01 T03670084  RH  018%=      5-min Rain = 0
KHO1 182248Z 14010KT 37/08 A2994 RMK A01 T03660082  RH  018%=      5-min Rain = 0
KHO1 182249Z 15010KT 37/08 A2994 RMK A01 T03660083  RH  018%=      5-min Rain = 0
KHO1 182250Z 14010KT 37/08 A2993 RMK A01 T03670082  RH  018%=      5-min Rain = 0
KHO1 182251Z 17013KT 37/08 A2994 RMK A01 T03670081  RH  017%=      5-min Rain = 0
KHO1 182252Z 16010KT 37/08 A2994 RMK A01 T03650080  RH  018%=      5-min Rain = 0
KHO1 182253Z 16007KT 36/08 A2994 RMK A01 T03630078  RH  017%=      5-min Rain = 0
KHO1 182254Z 16008KT 36/08 A2993 RMK A01 T03620081  RH  018%=      5-min Rain = 0
KHO1 182255Z 17008KT 36/08 A2993 RMK A01 T03630080  RH  018%=      5-min Rain = 0
KHO1 182256Z 17010KT 36/08 A2993 RMK A01 T03640079  RH  018%=      5-min Rain = 0
KHO1 182257Z 17012KT 36/08 A2993 RMK A01 T03630077  RH  017%=      5-min Rain = 0
KHO1 182258Z 16012G17KT 36/08 A2993 RMK A01 T03640081  RH  018%=      5-min Rain = 0
KHO1 182259Z 18014KT 37/08 A2993 RMK A01 T03650077  RH  017%=      5-min Rain = 0
KHO1 182300Z 17009KT 36/08 A2993 RMK A01 T03640079  RH  018%=      5-min Rain = 0
KHO1 182301Z 17006KT 37/08 A2993 RMK A01 T03650079  RH  017%=      5-min Rain = 0
KHO1 182302Z 15009KT 37/08 A2993 RMK A01 T03660078  RH  017%=      5-min Rain = 0
KHO1 182303Z 16009KT 37/08 A2993 RMK A01 T03650078  RH  017%=      5-min Rain = 0
KHO1 182304Z 16010KT 36/08 A2993 RMK A01 T03640076  RH  017%=      5-min Rain = 0
KHO1 182305Z 16010KT 36/08 A2993 RMK A01 T03640077  RH  017%=      5-min Rain = 0
KHO1 182306Z 17012KT 36/08 A2993 RMK A01 T03640080  RH  018%=      5-min Rain = 0
KHO1 182307Z 17012KT 37/08 A2993 RMK A01 T03650078  RH  017%=      5-min Rain = 0
KHO1 182308Z 18011KT 36/08 A2993 RMK A01 T03630079  RH  018%=      5-min Rain = 0
KHO1 182309Z 18010KT 36/08 A2993 RMK A01 T03620080  RH  018%=      5-min Rain = 0
KHO1 182310Z 15007KT 36/08 A2993 RMK A01 T03620080  RH  018%=      5-min Rain = 0
KHO1 182311Z 15007KT 36/09 A2993 RMK A01 T03630085  RH  018%=      5-min Rain = 0
KHO1 182312Z 16006KT 37/08 A2993 RMK A01 T03650084  RH  018%=      5-min Rain = 0
KHO1 182313Z 16006KT 37/08 A2993 RMK A01 T03670081  RH  017%=      5-min Rain = 0
KHO1 182314Z 17011KT 37/08 A2993 RMK A01 T03660080  RH  017%=      5-min Rain = 0
KHO1 182315Z 16011KT 37/08 A2993 RMK A01 T03660079  RH  017%=      5-min Rain = 0
KHO1 182316Z 15007KT 37/08 A2993 RMK A01 T03650078  RH  017%=      5-min Rain = 0
KHO1 182317Z 17004KT 37/08 A2993 RMK A01 T03650079  RH  017%=      5-min Rain = 0
KHO1 182318Z 18006KT 37/08 A2993 RMK A01 T03650079  RH  017%=      5-min Rain = 0
KHO1 182319Z 18007G12KT 37/08 A2992 RMK A01 T03650083  RH  018%=      5-min Rain = 0
KHO1 182320Z 18007KT 37/09 A2993 RMK A01 T03680086  RH  018%=      5-min Rain = 0
KHO1 182321Z 18011KT 37/09 A2992 RMK A01 T03690085  RH  018%=      5-min Rain = 0
KHO1 182322Z 19016KT 37/08 A2993 RMK A01 T03690084  RH  018%=      5-min Rain = 0
KHO1 182323Z 19013KT 37/08 A2993 RMK A01 T03660083  RH  018%=      5-min Rain = 0
KHO1 182324Z 19010KT 36/08 A2993 RMK A01 T03640082  RH  018%=      5-min Rain = 0
KHO1 182325Z 19009KT 36/08 A2993 RMK A01 T03630083  RH  018%=      5-min Rain = 0
KHO1 182326Z 19008KT 36/09 A2993 RMK A01 T03640086  RH  018%=      5-min Rain = 0
KHO1 182327Z 20010KT 37/08 A2993 RMK A01 T03650084  RH  018%=      5-min Rain = 0
KHO1 182328Z 19011KT 36/08 A2993 RMK A01 T03640083  RH  018%=      5-min Rain = 0
KHO1 182329Z 19013KT 36/08 A2993 RMK A01 T03640082  RH  018%=      5-min Rain = 0
KHO1 182330Z 18010KT 36/08 A2993 RMK A01 T03620081  RH  018%=      5-min Rain = 0
KHO1 182331Z 18011KT 36/08 A2993 RMK A01 T03610082  RH  018%=      5-min Rain = 0
KHO1 182332Z 19015KT 36/08 A2992 RMK A01 T03630082  RH  018%=      5-min Rain = 0
KHO1 182333Z 20013KT 36/08 A2993 RMK A01 T03620081  RH  018%=      5-min Rain = 0
KHO1 182334Z 20013KT 36/08 A2993 RMK A01 T03620083  RH  018%=      5-min Rain = 0
KHO1 182335Z 19011KT 36/08 A2993 RMK A01 T03630082  RH  018%=      5-min Rain = 0
KHO1 182336Z 18011KT 36/08 A2993 RMK A01 T03620081  RH  018%=      5-min Rain = 0
KHO1 182337Z 19011KT 36/08 A2993 RMK A01 T03620082  RH  018%=      5-min Rain = 0
KHO1 182338Z 16015KT 36/08 A2992 RMK A01 T03630083  RH  018%=      5-min Rain = 0
KHO1 182339Z 16013KT 36/08 A2992 RMK A01 T03620082  RH  018%=      5-min Rain = 0
KHO1 182340Z 16010KT 36/08 A2992 RMK A01 T03600081  RH  018%=      5-min Rain = 0
KHO1 182341Z 15009KT 36/08 A2992 RMK A01 T03610082  RH  018%=      5-min Rain = 0
KHO1 182342Z 16010KT 36/08 A2992 RMK A01 T03620084  RH  018%=      5-min Rain = 0
KHO1 182343Z 17014KT 36/08 A2992 RMK A01 T03640082  RH  018%=      5-min Rain = 0
KHO1 182344Z 17017KT 36/08 A2992 RMK A01 T03630078  RH  018%=      5-min Rain = 0
KHO1 182345Z 17015KT 36/08 A2992 RMK A01 T03610079  RH  018%=      5-min Rain = 0
KHO1 182346Z 17014KT 36/08 A2993 RMK A01 T03590078  RH  018%=      5-min Rain = 0
KHO1 182347Z 16012KT 36/08 A2992 RMK A01 T03600081  RH  018%=      5-min Rain = 0
KHO1 182348Z 15011KT 36/08 A2993 RMK A01 T03620082  RH  018%=      5-min Rain = 0
KHO1 182349Z 17012KT 36/08 A2993 RMK A01 T03620080  RH  018%=      5-min Rain = 0
KHO1 182350Z 16011KT 36/08 A2993 RMK A01 T03620081  RH  018%=      5-min Rain = 0
KHO1 182351Z 17006KT 36/08 A2993 RMK A01 T03610080  RH  018%=      5-min Rain = 0
KHO1 182352Z 17008KT 36/08 A2993 RMK A01 T03610081  RH  018%=      5-min Rain = 0
KHO1 182353Z 18009KT 36/08 A2993 RMK A01 T03620082  RH  018%=      5-min Rain = 0
KHO1 182354Z 19011KT 36/08 A2993 RMK A01 T03640082  RH  018%=      5-min Rain = 0
KHO1 182355Z 19011KT 37/08 A2993 RMK A01 T03650081  RH  018%=      5-min Rain = 0
KHO1 182356Z 20008KT 37/08 A2993 RMK A01 T03650082  RH  018%=      5-min Rain = 0
KHO1 182357Z 18008KT 37/08 A2993 RMK A01 T03660082  RH  018%=      5-min Rain = 0
KHO1 182358Z 17008KT 37/08 A2993 RMK A01 T03650080  RH  018%=      5-min Rain = 0
KHO1 182359Z 16009KT 36/08 A2993 RMK A01 T03640079  RH  018%=      5-min Rain = 0
KHO1 190000Z 17009KT 36/08 A2993 RMK A01 T03640081  RH  018%=      5-min Rain = 0
KHO1 190001Z 17010KT 36/08 A2993 RMK A01 T03640079  RH  018%=      5-min Rain = 0
KHO1 190002Z 17012G18KT 36/08 A2993 RMK A01 T03630080  RH  018%=      5-min Rain = 0
KHO1 190003Z 17014KT 36/08 A2993 RMK A01 T03620082  RH  018%=      5-min Rain = 0
KHO1 190004Z 16017KT 36/08 A2993 RMK A01 T03610081  RH  018%=      5-min Rain = 0
KHO1 190005Z 16016KT 36/08 A2993 RMK A01 T03590081  RH  018%=      5-min Rain = 0
KHO1 190006Z 16013KT 36/08 A2993 RMK A01 T03590082  RH  018%=      5-min Rain = 0
KHO1 190007Z 17012KT 36/08 A2993 RMK A01 T03590082  RH  018%=      5-min Rain = 0
KHO1 190008Z 17011KT 36/08 A2993 RMK A01 T03590082  RH  018%=      5-min Rain = 0
KHO1 190009Z 18014KT 36/08 A2993 RMK A01 T03580081  RH  018%=      5-min Rain = 0
KHO1 190010Z 17013G18KT 36/08 A2993 RMK A01 T03590083  RH  018%=      5-min Rain = 0
KHO1 190011Z 17016KT 36/08 A2993 RMK A01 T03600081  RH  018%=      5-min Rain = 0
KHO1 190012Z 18015KT 36/08 A2993 RMK A01 T03580080  RH  018%=      5-min Rain = 0
KHO1 190013Z 18014KT 36/08 A2993 RMK A01 T03580081  RH  018%=      5-min Rain = 0
KHO1 190014Z 17014KT 36/08 A2993 RMK A01 T03590081  RH  018%=      5-min Rain = 0
KHO1 190015Z 18010KT 36/08 A2993 RMK A01 T03580080  RH  018%=      5-min Rain = 0
KHO1 190016Z 17013KT 36/08 A2993 RMK A01 T03580081  RH  018%=      5-min Rain = 0
KHO1 190017Z 17014KT 36/08 A2993 RMK A01 T03590081  RH  018%=      5-min Rain = 0
KHO1 190018Z 17014KT 36/08 A2993 RMK A01 T03580079  RH  018%=      5-min Rain = 0
KHO1 190019Z 18012KT 36/08 A2993 RMK A01 T03570080  RH  018%=      5-min Rain = 0
KHO1 190020Z 17013KT 36/08 A2993 RMK A01 T03580081  RH  018%=      5-min Rain = 0
KHO1 190021Z 16013KT 36/08 A2993 RMK A01 T03580081  RH  018%=      5-min Rain = 0
KHO1 190022Z 16013KT 36/08 A2993 RMK A01 T03580081  RH  018%=      5-min Rain = 0
KHO1 190023Z 16012KT 36/08 A2993 RMK A01 T03580080  RH  018%=      5-min Rain = 0
KHO1 190024Z 17011KT 36/08 A2993 RMK A01 T03580080  RH  018%=      5-min Rain = 0
KHO1 190025Z 17014KT 36/08 A2993 RMK A01 T03580079  RH  018%=      5-min Rain = 0
KHO1 190026Z 17014KT 36/08 A2993 RMK A01 T03570080  RH  018%=      5-min Rain = 0
KHO1 190027Z 17015KT 36/08 A2993 RMK A01 T03580079  RH  018%=      5-min Rain = 0
KHO1 190028Z 16017KT 36/08 A2993 RMK A01 T03580077  RH  018%=      5-min Rain = 0
KHO1 190029Z 16015KT 36/08 A2993 RMK A01 T03570077  RH  018%=      5-min Rain = 0
KHO1 190030Z 16015KT 36/08 A2993 RMK A01 T03560077  RH  018%=      5-min Rain = 0
KHO1 190031Z 17013KT 36/08 A2993 RMK A01 T03560078  RH  018%=      5-min Rain = 0
KHO1 190032Z 16013KT 36/08 A2993 RMK A01 T03560078  RH  018%=      5-min Rain = 0
KHO1 190033Z 16011KT 36/08 A2993 RMK A01 T03560078  RH  018%=      5-min Rain = 0
KHO1 190034Z 17011KT 36/08 A2993 RMK A01 T03560078  RH  018%=      5-min Rain = 0
KHO1 190035Z 17015G21KT 36/08 A2993 RMK A01 T03560078  RH  018%=      5-min Rain = 0
KHO1 190036Z 17018KT 36/08 A2993 RMK A01 T03560077  RH  018%=      5-min Rain = 0
KHO1 190037Z 17015KT 36/08 A2993 RMK A01 T03550077  RH  018%=      5-min Rain = 0
KHO1 190038Z 18015KT 35/08 A2993 RMK A01 T03540078  RH  018%=      5-min Rain = 0
KHO1 190039Z 17012KT 35/08 A2993 RMK A01 T03540078  RH  018%=      5-min Rain = 0
KHO1 190040Z 18010KT 35/08 A2993 RMK A01 T03540079  RH  018%=      5-min Rain = 0
KHO1 190041Z 18010KT 36/08 A2993 RMK A01 T03550079  RH  018%=      5-min Rain = 0
KHO1 190042Z 17013KT 36/08 A2993 RMK A01 T03560079  RH  018%=      5-min Rain = 0
KHO1 190043Z 17015KT 36/08 A2993 RMK A01 T03560078  RH  018%=      5-min Rain = 0
KHO1 190044Z 18014KT 36/08 A2993 RMK A01 T03550078  RH  018%=      5-min Rain = 0
KHO1 190045Z 18017KT 36/08 A2993 RMK A01 T03550077  RH  018%=      5-min Rain = 0
KHO1 190046Z 19014G19KT 35/08 A2993 RMK A01 T03540077  RH  018%=      5-min Rain = 0
KHO1 190047Z 18018KT 35/08 A2993 RMK A01 T03540077  RH  018%=      5-min Rain = 0
KHO1 190048Z 17015KT 35/08 A2993 RMK A01 T03540077  RH  018%=      5-min Rain = 0
KHO1 190049Z 17014KT 35/08 A2993 RMK A01 T03540077  RH  018%=      5-min Rain = 0
KHO1 190050Z 18014KT 35/08 A2993 RMK A01 T03530076  RH  018%=      5-min Rain = 0
KHO1 190051Z 19012KT 35/08 A2993 RMK A01 T03520076  RH  018%=      5-min Rain = 0
KHO1 190052Z 17015G20KT 35/08 A2993 RMK A01 T03520077  RH  018%=      5-min Rain = 0
KHO1 190053Z 17014KT 35/08 A2993 RMK A01 T03520076  RH  018%=      5-min Rain = 0
KHO1 190054Z 17015KT 35/08 A2993 RMK A01 T03520076  RH  018%=      5-min Rain = 0
KHO1 190055Z 17014KT 35/08 A2993 RMK A01 T03520077  RH  018%=      5-min Rain = 0
KHO1 190056Z 17012KT 35/08 A2993 RMK A01 T03520075  RH  018%=      5-min Rain = 0
KHO1 190057Z 17014KT 35/08 A2993 RMK A01 T03510075  RH  018%=      5-min Rain = 0
KHO1 190058Z 17016KT 35/08 A2993 RMK A01 T03510075  RH  018%=      5-min Rain = 0
KHO1 190059Z 17015KT 35/08 A2993 RMK A01 T03510075  RH  018%=      5-min Rain = 0
KHO1 190100Z 17013KT 35/08 A2993 RMK A01 T03510075  RH  018%=      5-min Rain = 0
KHO1 190101Z 17013KT 35/08 A2993 RMK A01 T03510075  RH  018%=      5-min Rain = 0
KHO1 190102Z 17013KT 35/07 A2993 RMK A01 T03510074  RH  018%=      5-min Rain = 0
KHO1 190103Z 17014KT 35/07 A2993 RMK A01 T03510074  RH  018%=      5-min Rain = 0
KHO1 190104Z 16013KT 35/07 A2993 RMK A01 T03510074  RH  018%=      5-min Rain = 0
KHO1 190105Z 16013KT 35/07 A2993 RMK A01 T03500074  RH  018%=      5-min Rain = 0
KHO1 190106Z 16016KT 35/07 A2993 RMK A01 T03500074  RH  018%=      5-min Rain = 0
KHO1 190107Z 16014KT 35/07 A2993 RMK A01 T03500074  RH  018%=      5-min Rain = 0
KHO1 190108Z 16015KT 35/07 A2993 RMK A01 T03500074  RH  018%=      5-min Rain = 0
KHO1 190109Z 16014KT 35/07 A2993 RMK A01 T03500073  RH  018%=      5-min Rain = 0
KHO1 190110Z 17013KT 35/07 A2993 RMK A01 T03500073  RH  018%=      5-min Rain = 0
KHO1 190111Z 16013KT 35/07 A2993 RMK A01 T03490073  RH  018%=      5-min Rain = 0
KHO1 190112Z 16012KT 35/07 A2993 RMK A01 T03490074  RH  018%=      5-min Rain = 0
KHO1 190113Z 16017KT 35/07 A2993 RMK A01 T03490072  RH  018%=      5-min Rain = 0
KHO1 190114Z 16014KT 35/07 A2993 RMK A01 T03490072  RH  018%=      5-min Rain = 0
KHO1 190115Z 16012KT 35/07 A2993 RMK A01 T03480073  RH  018%=      5-min Rain = 0
KHO1 190116Z 16013KT 35/07 A2993 RMK A01 T03480073  RH  018%=      5-min Rain = 0
KHO1 190117Z 16016KT 35/07 A2993 RMK A01 T03480072  RH  018%=      5-min Rain = 0
KHO1 190118Z 16013KT 35/07 A2993 RMK A01 T03470072  RH  018%=      5-min Rain = 0
KHO1 190119Z 17012KT 35/07 A2993 RMK A01 T03470072  RH  018%=      5-min Rain = 0
KHO1 190120Z 16011KT 35/07 A2993 RMK A01 T03470072  RH  018%=      5-min Rain = 0
KHO1 190121Z 16012KT 35/07 A2993 RMK A01 T03470072  RH  018%=      5-min Rain = 0
KHO1 190122Z 16012KT 35/07 A2993 RMK A01 T03460072  RH  018%=      5-min Rain = 0
KHO1 190123Z 16012KT 35/07 A2993 RMK A01 T03460072  RH  018%=      5-min Rain = 0
KHO1 190124Z 16012KT 35/07 A2993 RMK A01 T03460072  RH  018%=      5-min Rain = 0
KHO1 190125Z 16011KT 35/07 A2993 RMK A01 T03460072  RH  019%=      5-min Rain = 0
KHO1 190126Z 16010KT 35/07 A2993 RMK A01 T03450073  RH  019%=      5-min Rain = 0
KHO1 190127Z 16011KT 34/07 A2993 RMK A01 T03440072  RH  019%=      5-min Rain = 0
KHO1 190128Z 16011KT 34/07 A2993 RMK A01 T03440072  RH  019%=      5-min Rain = 0
KHO1 190129Z 16014KT 34/07 A2993 RMK A01 T03440071  RH  019%=      5-min Rain = 0
KHO1 190130Z 16013KT 34/07 A2993 RMK A01 T03440071  RH  018%=      5-min Rain = 0
KHO1 190131Z 16012KT 34/07 A2993 RMK A01 T03440071  RH  019%=      5-min Rain = 0
KHO1 190132Z 16011KT 34/07 A2993 RMK A01 T03430072  RH  019%=      5-min Rain = 0
KHO1 190133Z 17011KT 34/07 A2993 RMK A01 T03430071  RH  019%=      5-min Rain = 0
KHO1 190134Z 17012KT 34/07 A2993 RMK A01 T03430071  RH  019%=      5-min Rain = 0
KHO1 190135Z 17012KT 34/07 A2993 RMK A01 T03430071  RH  019%=      5-min Rain = 0
KHO1 190136Z 17015KT 34/07 A2993 RMK A01 T03420070  RH  019%=      5-min Rain = 0
KHO1 190137Z 16016KT 34/07 A2993 RMK A01 T03430069  RH  018%=      5-min Rain = 0
KHO1 190138Z 16014KT 34/07 A2993 RMK A01 T03430069  RH  018%=      5-min Rain = 0
KHO1 190139Z 17010KT 34/07 A2993 RMK A01 T03430070  RH  018%=      5-min Rain = 0
KHO1 190140Z 17011KT 34/07 A2993 RMK A01 T03420070  RH  019%=      5-min Rain = 0
KHO1 190141Z 17014KT 34/07 A2993 RMK A01 T03420069  RH  019%=      5-min Rain = 0
KHO1 190142Z 17012KT 34/07 A2993 RMK A01 T03420069  RH  019%=      5-min Rain = 0
KHO1 190143Z 16011KT 34/07 A2993 RMK A01 T03410069  RH  019%=      5-min Rain = 0
KHO1 190144Z 16011KT 34/07 A2993 RMK A01 T03400069  RH  019%=      5-min Rain = 0
KHO1 190145Z 16010KT 34/07 A2993 RMK A01 T03400069  RH  019%=      5-min Rain = 0
KHO1 190146Z 16012KT 34/07 A2993 RMK A01 T03390068  RH  019%=      5-min Rain = 0
KHO1 190147Z 16011KT 34/07 A2993 RMK A01 T03390068  RH  019%=      5-min Rain = 0
KHO1 190148Z 16011KT 34/07 A2993 RMK A01 T03390067  RH  019%=      5-min Rain = 0
KHO1 190149Z 16013KT 34/07 A2993 RMK A01 T03380067  RH  019%=      5-min Rain = 0
KHO1 190150Z 16010KT 34/07 A2993 RMK A01 T03380067  RH  019%=      5-min Rain = 0
KHO1 190151Z 16011KT 34/07 A2993 RMK A01 T03370067  RH  019%=      5-min Rain = 0
KHO1 190152Z 16012KT 34/07 A2993 RMK A01 T03380067  RH  019%=      5-min Rain = 0
KHO1 190153Z 16011KT 34/07 A2993 RMK A01 T03370067  RH  019%=      5-min Rain = 0
KHO1 190154Z 16010KT 34/07 A2993 RMK A01 T03370067  RH  019%=      5-min Rain = 0
KHO1 190155Z 16010KT 34/07 A2993 RMK A01 T03370067  RH  019%=      5-min Rain = 0
KHO1 190156Z 16010KT 34/07 A2993 RMK A01 T03360068  RH  019%=      5-min Rain = 0
KHO1 190157Z 16011KT 34/07 A2993 RMK A01 T03350069  RH  019%=      5-min Rain = 0
KHO1 190158Z 16014KT 34/07 A2993 RMK A01 T03350073  RH  020%=      5-min Rain = 0
KHO1 190159Z 15013KT 34/08 A2993 RMK A01 T03360075  RH  020%=      5-min Rain = 0
KHO1 190200Z 16014KT 34/08 A2993 RMK A01 T03350077  RH  020%=      5-min Rain = 0
KHO1 190201Z 16013KT 34/08 A2993 RMK A01 T03350078  RH  020%=      5-min Rain = 0
KHO1 190202Z 16012KT 34/08 A2993 RMK A01 T03350080  RH  021%=      5-min Rain = 0
KHO1 190203Z 16011KT 33/08 A2993 RMK A01 T03340082  RH  021%=      5-min Rain = 0
KHO1 190204Z 16013KT 33/08 A2993 RMK A01 T03340083  RH  021%=      5-min Rain = 0
KHO1 190205Z 15016KT 33/09 A2993 RMK A01 T03340085  RH  022%=      5-min Rain = 0
KHO1 190206Z 16015KT 33/09 A2993 RMK A01 T03340088  RH  022%=      5-min Rain = 0
KHO1 190207Z 16013KT 33/09 A2993 RMK A01 T03340089  RH  022%=      5-min Rain = 0
KHO1 190208Z 16014KT 33/09 A2993 RMK A01 T03330090  RH  022%=      5-min Rain = 0
KHO1 190209Z 16014KT 33/09 A2993 RMK A01 T03330091  RH  023%=      5-min Rain = 0
KHO1 190210Z 16012KT 33/09 A2994 RMK A01 T03320092  RH  023%=      5-min Rain = 0
KHO1 190211Z 16013KT 33/09 A2994 RMK A01 T03320092  RH  023%=      5-min Rain = 0
KHO1 190212Z 16013KT 33/09 A2994 RMK A01 T03320093  RH  023%=      5-min Rain = 0
KHO1 190213Z 17013KT 33/09 A2994 RMK A01 T03320093  RH  023%=      5-min Rain = 0
KHO1 190214Z 16010KT 33/09 A2994 RMK A01 T03310093  RH  023%=      5-min Rain = 0
KHO1 190215Z 16011KT 33/09 A2994 RMK A01 T03300094  RH  023%=      5-min Rain = 0
KHO1 190216Z 17012KT 33/10 A2994 RMK A01 T03290095  RH  024%=      5-min Rain = 0
KHO1 190217Z 16013KT 33/10 A2994 RMK A01 T03290096  RH  024%=      5-min Rain = 0
KHO1 190218Z 16015KT 33/10 A2994 RMK A01 T03290098  RH  024%=      5-min Rain = 0
KHO1 190219Z 17017KT 33/10 A2994 RMK A01 T03290100  RH  024%=      5-min Rain = 0
KHO1 190220Z 16016KT 33/10 A2994 RMK A01 T03290100  RH  024%=      5-min Rain = 0
KHO1 190221Z 16015KT 33/10 A2994 RMK A01 T03290100  RH  025%=      5-min Rain = 0
KHO1 190222Z 16013KT 33/10 A2994 RMK A01 T03280100  RH  025%=      5-min Rain = 0
KHO1 190223Z 16014G20KT 33/10 A2994 RMK A01 T03270101  RH  025%=      5-min Rain = 0
KHO1 190224Z 16012KT 33/10 A2994 RMK A01 T03260102  RH  025%=      5-min Rain = 0
KHO1 190225Z 16014KT 33/10 A2994 RMK A01 T03260102  RH  025%=      5-min Rain = 0
KHO1 190226Z 16015KT 33/10 A2994 RMK A01 T03260103  RH  025%=      5-min Rain = 0
KHO1 190227Z 16018KT 33/10 A2994 RMK A01 T03260104  RH  026%=      5-min Rain = 0
KHO1 190228Z 16018KT 33/11 A2994 RMK A01 T03260105  RH  026%=      5-min Rain = 0
KHO1 190229Z 16015KT 33/11 A2994 RMK A01 T03250105  RH  026%=      5-min Rain = 0
KHO1 190230Z 16018KT 33/11 A2994 RMK A01 T03250105  RH  026%=      5-min Rain = 0
KHO1 190231Z 16018KT 33/11 A2994 RMK A01 T03250106  RH  026%=      5-min Rain = 0
KHO1 190232Z 16016KT 33/11 A2994 RMK A01 T03250106  RH  026%=      5-min Rain = 0
KHO1 190233Z 17019KT 32/11 A2994 RMK A01 T03240106  RH  026%=      5-min Rain = 0
KHO1 190234Z 16018KT 32/11 A2994 RMK A01 T03240107  RH  026%=      5-min Rain = 0
KHO1 190235Z 17018KT 32/11 A2994 RMK A01 T03240107  RH  026%=      5-min Rain = 0
KHO1 190236Z 17016KT 32/11 A2994 RMK A01 T03240107  RH  026%=      5-min Rain = 0
KHO1 190237Z 17017KT 32/11 A2994 RMK A01 T03240107  RH  027%=      5-min Rain = 0
KHO1 190238Z 16017KT 32/11 A2994 RMK A01 T03230107  RH  027%=      5-min Rain = 0
KHO1 190239Z 16016KT 32/11 A2994 RMK A01 T03230108  RH  027%=      5-min Rain = 0
KHO1 190240Z 17017KT 32/11 A2994 RMK A01 T03230108  RH  027%=      5-min Rain = 0
KHO1 190241Z 16017KT 32/11 A2994 RMK A01 T03220108  RH  027%=      5-min Rain = 0
KHO1 190242Z 16016KT 32/11 A2994 RMK A01 T03220108  RH  027%=      5-min Rain = 0
KHO1 190243Z 16013KT 32/11 A2995 RMK A01 T03210108  RH  027%=      5-min Rain = 0
KHO1 190244Z 16013KT 32/11 A2995 RMK A01 T03200108  RH  027%=      5-min Rain = 0
KHO1 190245Z 16015KT 32/11 A2995 RMK A01 T03200108  RH  027%=      5-min Rain = 0
KHO1 190246Z 17016KT 32/11 A2995 RMK A01 T03200108  RH  027%=      5-min Rain = 0
KHO1 190247Z 16014KT 32/11 A2995 RMK A01 T03200109  RH  027%=      5-min Rain = 0
KHO1 190248Z 16014KT 32/11 A2995 RMK A01 T03190109  RH  027%=      5-min Rain = 0
KHO1 190249Z 16016KT 32/11 A2995 RMK A01 T03190109  RH  028%=      5-min Rain = 0
KHO1 190250Z 16018KT 32/11 A2995 RMK A01 T03190109  RH  028%=      5-min Rain = 0
KHO1 190251Z 17016KT 32/11 A2995 RMK A01 T03190109  RH  028%=      5-min Rain = 0
KHO1 190252Z 16016KT 32/11 A2995 RMK A01 T03190110  RH  028%=      5-min Rain = 0
KHO1 190253Z 16016KT 32/11 A2995 RMK A01 T03180110  RH  028%=      5-min Rain = 0
KHO1 190254Z 17017G23KT 32/11 A2995 RMK A01 T03180111  RH  028%=      5-min Rain = 0
KHO1 190255Z 17015KT 32/11 A2995 RMK A01 T03180110  RH  028%=      5-min Rain = 0
KHO1 190256Z 16018KT 32/11 A2995 RMK A01 T03180111  RH  028%=      5-min Rain = 0
KHO1 190257Z 16017G22KT 32/11 A2995 RMK A01 T03180111  RH  028%=      5-min Rain = 0
KHO1 190258Z 16018KT 32/11 A2995 RMK A01 T03180112  RH  028%=      5-min Rain = 0
KHO1 190259Z 16016KT 32/11 A2995 RMK A01 T03170112  RH  028%=      5-min Rain = 0
KHO1 190300Z 16016KT 32/11 A2995 RMK A01 T03170112  RH  028%=      5-min Rain = 0
KHO1 190301Z 16018KT 32/11 A2995 RMK A01 T03170112  RH  029%=      5-min Rain = 0
KHO1 190302Z 16018KT 32/11 A2995 RMK A01 T03170113  RH  029%=      5-min Rain = 0
KHO1 190303Z 16017KT 32/11 A2995 RMK A01 T03160113  RH  029%=      5-min Rain = 0
KHO1 190304Z 16017KT 32/11 A2995 RMK A01 T03160114  RH  029%=      5-min Rain = 0
KHO1 190305Z 16016G22KT 32/11 A2995 RMK A01 T03160114  RH  029%=      5-min Rain = 0
KHO1 190306Z 17019KT 32/11 A2995 RMK A01 T03150114  RH  029%=      5-min Rain = 0
KHO1 190307Z 16017KT 32/12 A2995 RMK A01 T03160115  RH  029%=      5-min Rain = 0
KHO1 190308Z 16015KT 32/12 A2995 RMK A01 T03150115  RH  029%=      5-min Rain = 0
KHO1 190309Z 17015KT 31/12 A2995 RMK A01 T03140115  RH  029%=      5-min Rain = 0
KHO1 190310Z 16014KT 31/12 A2995 RMK A01 T03140115  RH  030%=      5-min Rain = 0
KHO1 190311Z 17017KT 31/12 A2995 RMK A01 T03140116  RH  030%=      5-min Rain = 0
KHO1 190312Z 16019G24KT 31/12 A2995 RMK A01 T03140117  RH  030%=      5-min Rain = 0
KHO1 190313Z 16017KT 31/12 A2996 RMK A01 T03140117  RH  030%=      5-min Rain = 0
KHO1 190314Z 16017KT 31/12 A2996 RMK A01 T03130117  RH  030%=      5-min Rain = 0
KHO1 190315Z 17018KT 31/12 A2996 RMK A01 T03130117  RH  030%=      5-min Rain = 0
KHO1 190316Z 17017KT 31/12 A2996 RMK A01 T03130117  RH  030%=      5-min Rain = 0
KHO1 190317Z 16016KT 31/12 A2996 RMK A01 T03130118  RH  030%=      5-min Rain = 0
KHO1 190318Z 17015KT 31/12 A2996 RMK A01 T03130118  RH  030%=      5-min Rain = 0
KHO1 190319Z 16015G20KT 31/12 A2996 RMK A01 T03120118  RH  030%=      5-min Rain = 0
KHO1 190320Z 17016KT 31/12 A2996 RMK A01 T03120118  RH  031%=      5-min Rain = 0
KHO1 190321Z 16017KT 31/12 A2996 RMK A01 T03110119  RH  031%=      5-min Rain = 0
KHO1 190322Z 16018KT 31/12 A2996 RMK A01 T03110119  RH  031%=      5-min Rain = 0
KHO1 190323Z 17017KT 31/12 A2996 RMK A01 T03110119  RH  031%=      5-min Rain = 0
KHO1 190324Z 17018KT 31/12 A2996 RMK A01 T03110119  RH  031%=      5-min Rain = 0
KHO1 190325Z 16018KT 31/12 A2996 RMK A01 T03110119  RH  031%=      5-min Rain = 0
KHO1 190326Z 16018KT 31/12 A2996 RMK A01 T03110120  RH  031%=      5-min Rain = 0
KHO1 190327Z 16015KT 31/12 A2996 RMK A01 T03110120  RH  031%=      5-min Rain = 0
KHO1 190328Z 16014KT 31/12 A2996 RMK A01 T03100120  RH  031%=      5-min Rain = 0
KHO1 190329Z 16015KT 31/12 A2996 RMK A01 T03090120  RH  031%=      5-min Rain = 0
KHO1 190330Z 16018KT 31/12 A2996 RMK A01 T03090120  RH  031%=      5-min Rain = 0
KHO1 190331Z 16017G22KT 31/12 A2996 RMK A01 T03090121  RH  032%=      5-min Rain = 0
KHO1 190332Z 16016G21KT 31/12 A2996 RMK A01 T03090121  RH  032%=      5-min Rain = 0
KHO1 190333Z 16015G20KT 31/12 A2996 RMK A01 T03080121  RH  032%=      5-min Rain = 0
KHO1 190334Z 16012KT 31/12 A2996 RMK A01 T03070121  RH  032%=      5-min Rain = 0
KHO1 190335Z 16018KT 31/12 A2996 RMK A01 T03070122  RH  032%=      5-min Rain = 0
KHO1 190336Z 16017KT 31/12 A2996 RMK A01 T03080123  RH  032%=      5-min Rain = 0
KHO1 190337Z 17015KT 31/12 A2996 RMK A01 T03070123  RH  032%=      5-min Rain = 0
KHO1 190338Z 17018KT 31/12 A2996 RMK A01 T03070123  RH  032%=      5-min Rain = 0
KHO1 190339Z 16016KT 31/12 A2996 RMK A01 T03070123  RH  032%=      5-min Rain = 0
KHO1 190340Z 16017KT 31/12 A2997 RMK A01 T03070124  RH  033%=      5-min Rain = 0
KHO1 190341Z 16015KT 31/12 A2997 RMK A01 T03060124  RH  033%=      5-min Rain = 0
KHO1 190342Z 17018KT 31/12 A2997 RMK A01 T03060124  RH  033%=      5-min Rain = 0
KHO1 190343Z 16015KT 31/12 A2997 RMK A01 T03060124  RH  033%=      5-min Rain = 0
KHO1 190344Z 16017G22KT 31/13 A2997 RMK A01 T03060125  RH  033%=      5-min Rain = 0
KHO1 190345Z 16016G22KT 31/13 A2997 RMK A01 T03060125  RH  033%=      5-min Rain = 0
KHO1 190346Z 16014G20KT 31/13 A2997 RMK A01 T03050125  RH  033%=      5-min Rain = 0
KHO1 190347Z 16016KT 31/13 A2997 RMK A01 T03050126  RH  033%=      5-min Rain = 0
KHO1 190348Z 17016KT 31/13 A2997 RMK A01 T03050126  RH  033%=      5-min Rain = 0
KHO1 190349Z 17017KT 31/13 A2997 RMK A01 T03050126  RH  033%=      5-min Rain = 0
KHO1 190350Z 16018G24KT 30/13 A2997 RMK A01 T03040126  RH  034%=      5-min Rain = 0
KHO1 190351Z 16016KT 30/13 A2997 RMK A01 T03040127  RH  034%=      5-min Rain = 0
KHO1 190352Z 17014KT 30/13 A2997 RMK A01 T03040127  RH  034%=      5-min Rain = 0
KHO1 190353Z 16016KT 30/13 A2997 RMK A01 T03040127  RH  034%=      5-min Rain = 0
KHO1 190354Z 16017G22KT 30/13 A2997 RMK A01 T03030127  RH  034%=      5-min Rain = 0
KHO1 190355Z 17015KT 30/13 A2997 RMK A01 T03030127  RH  034%=      5-min Rain = 0
KHO1 190356Z 17016KT 30/13 A2997 RMK A01 T03030128  RH  034%=      5-min Rain = 0
KHO1 190357Z 17019KT 30/13 A2997 RMK A01 T03030128  RH  034%=      5-min Rain = 0
KHO1 190358Z 16019G26KT 30/13 A2997 RMK A01 T03030128  RH  034%=      5-min Rain = 0
KHO1 190359Z 16016KT 30/13 A2997 RMK A01 T03030128  RH  034%=      5-min Rain = 0
KHO1 190400Z 17017KT 30/13 A2997 RMK A01 T03020129  RH  034%=      5-min Rain = 0
KHO1 190401Z 17015KT 30/13 A2997 RMK A01 T03020129  RH  035%=      5-min Rain = 0
KHO1 190402Z 16018KT 30/13 A2997 RMK A01 T03020129  RH  035%=      5-min Rain = 0
KHO1 190403Z 17017KT 30/13 A2997 RMK A01 T03020130  RH  035%=      5-min Rain = 0
KHO1 190404Z 17018KT 30/13 A2997 RMK A01 T03020130  RH  035%=      5-min Rain = 0
KHO1 190405Z 16019G24KT 30/13 A2997 RMK A01 T03020131  RH  035%=      5-min Rain = 0
KHO1 190406Z 17016G21KT 30/13 A2997 RMK A01 T03020131  RH  035%=      5-min Rain = 0
KHO1 190407Z 16022KT 30/13 A2997 RMK A01 T03010132  RH  035%=      5-min Rain = 0
KHO1 190408Z 17019KT 30/13 A2997 RMK A01 T03020131  RH  035%=      5-min Rain = 0
KHO1 190409Z 16018KT 30/13 A2998 RMK A01 T03010132  RH  035%=      5-min Rain = 0
KHO1 190410Z 16019KT 30/13 A2997 RMK A01 T03010132  RH  036%=      5-min Rain = 0
KHO1 190411Z 16020KT 30/13 A2998 RMK A01 T03010132  RH  036%=      5-min Rain = 0
KHO1 190412Z 17018KT 30/13 A2997 RMK A01 T03010133  RH  036%=      5-min Rain = 0
KHO1 190413Z 17021KT 30/13 A2998 RMK A01 T03010133  RH  036%=      5-min Rain = 0
KHO1 190414Z 16019KT 30/13 A2998 RMK A01 T03010133  RH  036%=      5-min Rain = 0
KHO1 190415Z 17018KT 30/13 A2998 RMK A01 T03010133  RH  036%=      5-min Rain = 0
KHO1 190416Z 17018KT 30/13 A2998 RMK A01 T03000133  RH  036%=      5-min Rain = 0
KHO1 190417Z 16019KT 30/13 A2998 RMK A01 T03000133  RH  036%=      5-min Rain = 0
KHO1 190418Z 17018KT 30/13 A2998 RMK A01 T03000134  RH  036%=      5-min Rain = 0
KHO1 190419Z 17019G25KT 30/13 A2998 RMK A01 T02990134  RH  036%=      5-min Rain = 0
KHO1 190420Z 17021KT 30/13 A2998 RMK A01 T02990134  RH  036%=      5-min Rain = 0
KHO1 190421Z 17020G25KT 30/13 A2998 RMK A01 T02990134  RH  036%=      5-min Rain = 0
KHO1 190422Z 17017KT 30/13 A2998 RMK A01 T02990134  RH  036%=      5-min Rain = 0
KHO1 190423Z 17019KT 30/13 A2998 RMK A01 T02990134  RH  037%=      5-min Rain = 0
KHO1 190424Z 17019KT 30/14 A2998 RMK A01 T02990135  RH  037%=      5-min Rain = 0
KHO1 190425Z 16022KT 30/14 A2998 RMK A01 T02990135  RH  037%=      5-min Rain = 0
KHO1 190426Z 17018G23KT 30/14 A2998 RMK A01 T02990135  RH  037%=      5-min Rain = 0
KHO1 190427Z 17017G22KT 30/14 A2998 RMK A01 T02980135  RH  037%=      5-min Rain = 0
KHO1 190428Z 16020KT 30/14 A2998 RMK A01 T02980135  RH  037%=      5-min Rain = 0
KHO1 190429Z 16018KT 30/14 A2998 RMK A01 T02980135  RH  037%=      5-min Rain = 0
KHO1 190430Z 16017KT 30/14 A2998 RMK A01 T02970135  RH  037%=      5-min Rain = 0
KHO1 190431Z 16015KT 30/14 A2998 RMK A01 T02970135  RH  037%=      5-min Rain = 0
KHO1 190432Z 17016G21KT 30/14 A2998 RMK A01 T02960135  RH  037%=      5-min Rain = 0
KHO1 190433Z 17016G21KT 30/14 A2998 RMK A01 T02960135  RH  037%=      5-min Rain = 0
KHO1 190434Z 17017KT 30/14 A2998 RMK A01 T02960135  RH  037%=      5-min Rain = 0
KHO1 190435Z 17014KT 30/14 A2998 RMK A01 T02950135  RH  038%=      5-min Rain = 0
KHO1 190436Z 17016KT 30/14 A2998 RMK A01 T02950136  RH  038%=      5-min Rain = 0
KHO1 190437Z 17017KT 30/14 A2998 RMK A01 T02950136  RH  038%=      5-min Rain = 0
KHO1 190438Z 17016KT 30/14 A2998 RMK A01 T02950136  RH  038%=      5-min Rain = 0
KHO1 190439Z 17016KT 30/14 A2998 RMK A01 T02950136  RH  038%=      5-min Rain = 0
KHO1 190440Z 17018KT 29/14 A2998 RMK A01 T02940136  RH  038%=      5-min Rain = 0
KHO1 190441Z 17015KT 29/14 A2999 RMK A01 T02940136  RH  038%=      5-min Rain = 0
KHO1 190442Z 17018KT 29/14 A2998 RMK A01 T02940136  RH  038%=      5-min Rain = 0
KHO1 190443Z 17014KT 29/14 A2999 RMK A01 T02940137  RH  038%=      5-min Rain = 0
KHO1 190444Z 16016KT 29/14 A2999 RMK A01 T02930137  RH  038%=      5-min Rain = 0
KHO1 190445Z 17014KT 29/14 A2999 RMK A01 T02930137  RH  038%=      5-min Rain = 0
KHO1 190446Z 17015KT 29/14 A2999 RMK A01 T02930137  RH  039%=      5-min Rain = 0
KHO1 190447Z 17018KT 29/14 A2999 RMK A01 T02920137  RH  039%=      5-min Rain = 0
KHO1 190448Z 17016KT 29/14 A2999 RMK A01 T02930137  RH  039%=      5-min Rain = 0
KHO1 190449Z 17014KT 29/14 A2999 RMK A01 T02920137  RH  039%=      5-min Rain = 0
KHO1 190450Z 17015G20KT 29/14 A2999 RMK A01 T02920137  RH  039%=      5-min Rain = 0
KHO1 190451Z 17018G23KT 29/14 A2999 RMK A01 T02920137  RH  039%=      5-min Rain = 0
KHO1 190452Z 17016G22KT 29/14 A2999 RMK A01 T02920137  RH  039%=      5-min Rain = 0
KHO1 190453Z 17014KT 29/14 A2999 RMK A01 T02910137  RH  039%=      5-min Rain = 0
KHO1 190454Z 17015KT 29/14 A2999 RMK A01 T02910138  RH  039%=      5-min Rain = 0
KHO1 190455Z 17013KT 29/14 A2999 RMK A01 T02910138  RH  039%=      5-min Rain = 0
KHO1 190456Z 17014G19KT 29/14 A2999 RMK A01 T02900138  RH  039%=      5-min Rain = 0
KHO1 190457Z 17015KT 29/14 A2999 RMK A01 T02900138  RH  039%=      5-min Rain = 0
KHO1 190458Z 17013KT 29/14 A2999 RMK A01 T02900138  RH  039%=      5-min Rain = 0
KHO1 190459Z 17014G20KT 29/14 A2999 RMK A01 T02890138  RH  040%=      5-min Rain = 0

Page generated in 0.1547 seconds.